<?xml version="1.0" encoding="UTF-8" standalone="no" ?>
<gpx xmlns="http://www.topografix.com/GPX/1/1" xmlns:xsi="http://www.w3.org/2001/XMLSchema-instance" xsi:schemaLocation="http://www.topografix.com/GPX/1/1 http://www.topografix.com/GPX/1/1/gpx.xsd" version="1.1" creator="VisuGPX - https://www.visugpx.com">
  <metadata>
    <name>randonnée de la passerelle 06-10-2019</name>
    <desc><![CDATA[oui trés belle randonnée mais assez glissante ]]></desc>
  </metadata>
  <trk>
    <name><![CDATA[randonnée de la passerelle 06-10-2019]]></name>
    <trkseg>
      <trkpt lat="46.37373" lon="5.76033">
        <ele>682.67</ele>
        <time>2019-10-06T07:07:12Z</time>
      </trkpt>
      <trkpt lat="46.37372" lon="5.76038">
        <ele>682.66</ele>
        <time>2019-10-06T07:07:33Z</time>
      </trkpt>
      <trkpt lat="46.37371" lon="5.7604">
        <ele>682.65</ele>
        <time>2019-10-06T07:07:35Z</time>
      </trkpt>
      <trkpt lat="46.37371" lon="5.76058">
        <ele>682.65</ele>
        <time>2019-10-06T07:07:45Z</time>
      </trkpt>
      <trkpt lat="46.3737" lon="5.76061">
        <ele>682.63</ele>
        <time>2019-10-06T07:07:47Z</time>
      </trkpt>
      <trkpt lat="46.37371" lon="5.76068">
        <ele>682.59</ele>
        <time>2019-10-06T07:07:52Z</time>
      </trkpt>
      <trkpt lat="46.37372" lon="5.76071">
        <ele>682.58</ele>
        <time>2019-10-06T07:07:54Z</time>
      </trkpt>
      <trkpt lat="46.37373" lon="5.76078">
        <ele>682.54</ele>
        <time>2019-10-06T07:07:57Z</time>
      </trkpt>
      <trkpt lat="46.37375" lon="5.76105">
        <ele>682.47</ele>
        <time>2019-10-06T07:08:09Z</time>
      </trkpt>
      <trkpt lat="46.37375" lon="5.76107">
        <ele>682.46</ele>
        <time>2019-10-06T07:08:10Z</time>
      </trkpt>
      <trkpt lat="46.37373" lon="5.76109">
        <ele>682.44</ele>
        <time>2019-10-06T07:08:11Z</time>
      </trkpt>
      <trkpt lat="46.37365" lon="5.76129">
        <ele>680.5</ele>
        <time>2019-10-06T07:08:22Z</time>
      </trkpt>
      <trkpt lat="46.37366" lon="5.7615">
        <ele>680.44</ele>
        <time>2019-10-06T07:08:32Z</time>
      </trkpt>
      <trkpt lat="46.37366" lon="5.76152">
        <ele>680.43</ele>
        <time>2019-10-06T07:08:33Z</time>
      </trkpt>
      <trkpt lat="46.37366" lon="5.76154">
        <ele>680.44</ele>
        <time>2019-10-06T07:08:34Z</time>
      </trkpt>
      <trkpt lat="46.37366" lon="5.76156">
        <ele>680.43</ele>
        <time>2019-10-06T07:08:35Z</time>
      </trkpt>
      <trkpt lat="46.37366" lon="5.76157">
        <ele>680.42</ele>
        <time>2019-10-06T07:08:36Z</time>
      </trkpt>
      <trkpt lat="46.37366" lon="5.76159">
        <ele>680.43</ele>
        <time>2019-10-06T07:08:37Z</time>
      </trkpt>
      <trkpt lat="46.37364" lon="5.76175">
        <ele>680.3</ele>
        <time>2019-10-06T07:08:46Z</time>
      </trkpt>
      <trkpt lat="46.37364" lon="5.76176">
        <ele>680.26</ele>
        <time>2019-10-06T07:08:47Z</time>
      </trkpt>
      <trkpt lat="46.37364" lon="5.76178">
        <ele>680.28</ele>
        <time>2019-10-06T07:08:48Z</time>
      </trkpt>
      <trkpt lat="46.37364" lon="5.76185">
        <ele>678.06</ele>
        <time>2019-10-06T07:08:51Z</time>
      </trkpt>
      <trkpt lat="46.37363" lon="5.76189">
        <ele>681.23</ele>
        <time>2019-10-06T07:08:53Z</time>
      </trkpt>
      <trkpt lat="46.37363" lon="5.76191">
        <ele>681.22</ele>
        <time>2019-10-06T07:08:54Z</time>
      </trkpt>
      <trkpt lat="46.37359" lon="5.76215">
        <ele>678.85</ele>
        <time>2019-10-06T07:09:06Z</time>
      </trkpt>
      <trkpt lat="46.37356" lon="5.76241">
        <ele>677.08</ele>
        <time>2019-10-06T07:09:19Z</time>
      </trkpt>
      <trkpt lat="46.37354" lon="5.7626">
        <ele>675.69</ele>
        <time>2019-10-06T07:09:37Z</time>
      </trkpt>
      <trkpt lat="46.37356" lon="5.76273">
        <ele>674.34</ele>
        <time>2019-10-06T07:09:44Z</time>
      </trkpt>
      <trkpt lat="46.37343" lon="5.76315">
        <ele>674.05</ele>
        <time>2019-10-06T07:10:00Z</time>
      </trkpt>
      <trkpt lat="46.37338" lon="5.76344">
        <ele>672.74</ele>
        <time>2019-10-06T07:10:13Z</time>
      </trkpt>
      <trkpt lat="46.37335" lon="5.76363">
        <ele>672.63</ele>
        <time>2019-10-06T07:10:19Z</time>
      </trkpt>
      <trkpt lat="46.37334" lon="5.76385">
        <ele>672.4</ele>
        <time>2019-10-06T07:10:28Z</time>
      </trkpt>
      <trkpt lat="46.37332" lon="5.76405">
        <ele>672.22</ele>
        <time>2019-10-06T07:10:36Z</time>
      </trkpt>
      <trkpt lat="46.37335" lon="5.76424">
        <ele>671.25</ele>
        <time>2019-10-06T07:10:46Z</time>
      </trkpt>
      <trkpt lat="46.37336" lon="5.76426">
        <ele>671.23</ele>
        <time>2019-10-06T07:10:47Z</time>
      </trkpt>
      <trkpt lat="46.37337" lon="5.76428">
        <ele>671.21</ele>
        <time>2019-10-06T07:10:48Z</time>
      </trkpt>
      <trkpt lat="46.37345" lon="5.76457">
        <ele>670.1</ele>
        <time>2019-10-06T07:11:00Z</time>
      </trkpt>
      <trkpt lat="46.37345" lon="5.7646">
        <ele>670.07</ele>
        <time>2019-10-06T07:11:01Z</time>
      </trkpt>
      <trkpt lat="46.37347" lon="5.76467">
        <ele>670.02</ele>
        <time>2019-10-06T07:11:04Z</time>
      </trkpt>
      <trkpt lat="46.3735" lon="5.76478">
        <ele>669.02</ele>
        <time>2019-10-06T07:11:10Z</time>
      </trkpt>
      <trkpt lat="46.3735" lon="5.7648">
        <ele>669</ele>
        <time>2019-10-06T07:11:11Z</time>
      </trkpt>
      <trkpt lat="46.3735" lon="5.76482">
        <ele>668.98</ele>
        <time>2019-10-06T07:11:12Z</time>
      </trkpt>
      <trkpt lat="46.37352" lon="5.76499">
        <ele>668.08</ele>
        <time>2019-10-06T07:11:19Z</time>
      </trkpt>
      <trkpt lat="46.37358" lon="5.76509">
        <ele>667.98</ele>
        <time>2019-10-06T07:11:25Z</time>
      </trkpt>
      <trkpt lat="46.37359" lon="5.76509">
        <ele>667.97</ele>
        <time>2019-10-06T07:11:26Z</time>
      </trkpt>
      <trkpt lat="46.37362" lon="5.7651">
        <ele>667.94</ele>
        <time>2019-10-06T07:11:28Z</time>
      </trkpt>
      <trkpt lat="46.37369" lon="5.76518">
        <ele>666.99</ele>
        <time>2019-10-06T07:11:34Z</time>
      </trkpt>
      <trkpt lat="46.3737" lon="5.7652">
        <ele>666.97</ele>
        <time>2019-10-06T07:11:35Z</time>
      </trkpt>
      <trkpt lat="46.3737" lon="5.76522">
        <ele>666.94</ele>
        <time>2019-10-06T07:11:36Z</time>
      </trkpt>
      <trkpt lat="46.37366" lon="5.76531">
        <ele>665.63</ele>
        <time>2019-10-06T07:11:45Z</time>
      </trkpt>
      <trkpt lat="46.37364" lon="5.76535">
        <ele>663.75</ele>
        <time>2019-10-06T07:11:48Z</time>
      </trkpt>
      <trkpt lat="46.37362" lon="5.76542">
        <ele>662.88</ele>
        <time>2019-10-06T07:11:52Z</time>
      </trkpt>
      <trkpt lat="46.37363" lon="5.76545">
        <ele>661.96</ele>
        <time>2019-10-06T07:11:54Z</time>
      </trkpt>
      <trkpt lat="46.37366" lon="5.76559">
        <ele>661.13</ele>
        <time>2019-10-06T07:12:05Z</time>
      </trkpt>
      <trkpt lat="46.37369" lon="5.76565">
        <ele>661.08</ele>
        <time>2019-10-06T07:12:08Z</time>
      </trkpt>
      <trkpt lat="46.3737" lon="5.76567">
        <ele>661.07</ele>
        <time>2019-10-06T07:12:09Z</time>
      </trkpt>
      <trkpt lat="46.3737" lon="5.76569">
        <ele>661.06</ele>
        <time>2019-10-06T07:12:10Z</time>
      </trkpt>
      <trkpt lat="46.3737" lon="5.76571">
        <ele>661.08</ele>
        <time>2019-10-06T07:12:11Z</time>
      </trkpt>
      <trkpt lat="46.37371" lon="5.76573">
        <ele>661.02</ele>
        <time>2019-10-06T07:12:12Z</time>
      </trkpt>
      <trkpt lat="46.37372" lon="5.76575">
        <ele>661.01</ele>
        <time>2019-10-06T07:12:13Z</time>
      </trkpt>
      <trkpt lat="46.37373" lon="5.76577">
        <ele>661</ele>
        <time>2019-10-06T07:12:14Z</time>
      </trkpt>
      <trkpt lat="46.37374" lon="5.76579">
        <ele>661</ele>
        <time>2019-10-06T07:12:15Z</time>
      </trkpt>
      <trkpt lat="46.37376" lon="5.76581">
        <ele>660.98</ele>
        <time>2019-10-06T07:12:16Z</time>
      </trkpt>
      <trkpt lat="46.3738" lon="5.76586">
        <ele>663.55</ele>
        <time>2019-10-06T07:12:19Z</time>
      </trkpt>
      <trkpt lat="46.37383" lon="5.76592">
        <ele>664.42</ele>
        <time>2019-10-06T07:12:23Z</time>
      </trkpt>
      <trkpt lat="46.37384" lon="5.76593">
        <ele>665.27</ele>
        <time>2019-10-06T07:12:24Z</time>
      </trkpt>
      <trkpt lat="46.37384" lon="5.76595">
        <ele>665.27</ele>
        <time>2019-10-06T07:12:25Z</time>
      </trkpt>
      <trkpt lat="46.37384" lon="5.76597">
        <ele>665.27</ele>
        <time>2019-10-06T07:12:26Z</time>
      </trkpt>
      <trkpt lat="46.37385" lon="5.76599">
        <ele>665.26</ele>
        <time>2019-10-06T07:12:27Z</time>
      </trkpt>
      <trkpt lat="46.37385" lon="5.76601">
        <ele>665.24</ele>
        <time>2019-10-06T07:12:28Z</time>
      </trkpt>
      <trkpt lat="46.37386" lon="5.76603">
        <ele>665.22</ele>
        <time>2019-10-06T07:12:29Z</time>
      </trkpt>
      <trkpt lat="46.37387" lon="5.76605">
        <ele>665.21</ele>
        <time>2019-10-06T07:12:30Z</time>
      </trkpt>
      <trkpt lat="46.37388" lon="5.76607">
        <ele>665.21</ele>
        <time>2019-10-06T07:12:31Z</time>
      </trkpt>
      <trkpt lat="46.37388" lon="5.76609">
        <ele>665.16</ele>
        <time>2019-10-06T07:12:32Z</time>
      </trkpt>
      <trkpt lat="46.37389" lon="5.76611">
        <ele>665.14</ele>
        <time>2019-10-06T07:12:33Z</time>
      </trkpt>
      <trkpt lat="46.3739" lon="5.76613">
        <ele>665.12</ele>
        <time>2019-10-06T07:12:34Z</time>
      </trkpt>
      <trkpt lat="46.3739" lon="5.76615">
        <ele>665.11</ele>
        <time>2019-10-06T07:12:35Z</time>
      </trkpt>
      <trkpt lat="46.37391" lon="5.76616">
        <ele>665.1</ele>
        <time>2019-10-06T07:12:36Z</time>
      </trkpt>
      <trkpt lat="46.37392" lon="5.76619">
        <ele>665.09</ele>
        <time>2019-10-06T07:12:37Z</time>
      </trkpt>
      <trkpt lat="46.37392" lon="5.7662">
        <ele>665.06</ele>
        <time>2019-10-06T07:12:38Z</time>
      </trkpt>
      <trkpt lat="46.37392" lon="5.76622">
        <ele>665.04</ele>
        <time>2019-10-06T07:12:39Z</time>
      </trkpt>
      <trkpt lat="46.37395" lon="5.76631">
        <ele>664.95</ele>
        <time>2019-10-06T07:12:43Z</time>
      </trkpt>
      <trkpt lat="46.37395" lon="5.76633">
        <ele>664.94</ele>
        <time>2019-10-06T07:12:44Z</time>
      </trkpt>
      <trkpt lat="46.37396" lon="5.76635">
        <ele>664.92</ele>
        <time>2019-10-06T07:12:45Z</time>
      </trkpt>
      <trkpt lat="46.37396" lon="5.76638">
        <ele>664.92</ele>
        <time>2019-10-06T07:12:46Z</time>
      </trkpt>
      <trkpt lat="46.37397" lon="5.7664">
        <ele>664.92</ele>
        <time>2019-10-06T07:12:47Z</time>
      </trkpt>
      <trkpt lat="46.37397" lon="5.76642">
        <ele>664.9</ele>
        <time>2019-10-06T07:12:48Z</time>
      </trkpt>
      <trkpt lat="46.37398" lon="5.76644">
        <ele>664.88</ele>
        <time>2019-10-06T07:12:49Z</time>
      </trkpt>
      <trkpt lat="46.37399" lon="5.76646">
        <ele>662.54</ele>
        <time>2019-10-06T07:12:50Z</time>
      </trkpt>
      <trkpt lat="46.37399" lon="5.76648">
        <ele>662.53</ele>
        <time>2019-10-06T07:12:51Z</time>
      </trkpt>
      <trkpt lat="46.37403" lon="5.76655">
        <ele>662.47</ele>
        <time>2019-10-06T07:12:55Z</time>
      </trkpt>
      <trkpt lat="46.37404" lon="5.76656">
        <ele>662.54</ele>
        <time>2019-10-06T07:12:56Z</time>
      </trkpt>
      <trkpt lat="46.37405" lon="5.76658">
        <ele>661.7</ele>
        <time>2019-10-06T07:12:57Z</time>
      </trkpt>
      <trkpt lat="46.37406" lon="5.76667">
        <ele>660.66</ele>
        <time>2019-10-06T07:13:01Z</time>
      </trkpt>
      <trkpt lat="46.37406" lon="5.76668">
        <ele>660.66</ele>
        <time>2019-10-06T07:13:02Z</time>
      </trkpt>
      <trkpt lat="46.37407" lon="5.7667">
        <ele>660.66</ele>
        <time>2019-10-06T07:13:03Z</time>
      </trkpt>
      <trkpt lat="46.37407" lon="5.76672">
        <ele>660.65</ele>
        <time>2019-10-06T07:13:04Z</time>
      </trkpt>
      <trkpt lat="46.37407" lon="5.76675">
        <ele>660.62</ele>
        <time>2019-10-06T07:13:06Z</time>
      </trkpt>
      <trkpt lat="46.37408" lon="5.7668">
        <ele>659.87</ele>
        <time>2019-10-06T07:13:09Z</time>
      </trkpt>
      <trkpt lat="46.37408" lon="5.76682">
        <ele>659.86</ele>
        <time>2019-10-06T07:13:10Z</time>
      </trkpt>
      <trkpt lat="46.37409" lon="5.76684">
        <ele>659.85</ele>
        <time>2019-10-06T07:13:11Z</time>
      </trkpt>
      <trkpt lat="46.37409" lon="5.76686">
        <ele>659.84</ele>
        <time>2019-10-06T07:13:12Z</time>
      </trkpt>
      <trkpt lat="46.37409" lon="5.76688">
        <ele>659.82</ele>
        <time>2019-10-06T07:13:13Z</time>
      </trkpt>
      <trkpt lat="46.3741" lon="5.76691">
        <ele>659.81</ele>
        <time>2019-10-06T07:13:14Z</time>
      </trkpt>
      <trkpt lat="46.37416" lon="5.76704">
        <ele>658.95</ele>
        <time>2019-10-06T07:13:23Z</time>
      </trkpt>
      <trkpt lat="46.37421" lon="5.76713">
        <ele>658.12</ele>
        <time>2019-10-06T07:13:29Z</time>
      </trkpt>
      <trkpt lat="46.37421" lon="5.76715">
        <ele>658.12</ele>
        <time>2019-10-06T07:13:30Z</time>
      </trkpt>
      <trkpt lat="46.37422" lon="5.76717">
        <ele>658.09</ele>
        <time>2019-10-06T07:13:31Z</time>
      </trkpt>
      <trkpt lat="46.37423" lon="5.76719">
        <ele>658.08</ele>
        <time>2019-10-06T07:13:32Z</time>
      </trkpt>
      <trkpt lat="46.37424" lon="5.76721">
        <ele>658.07</ele>
        <time>2019-10-06T07:13:33Z</time>
      </trkpt>
      <trkpt lat="46.37424" lon="5.76722">
        <ele>658.06</ele>
        <time>2019-10-06T07:13:34Z</time>
      </trkpt>
      <trkpt lat="46.37425" lon="5.76724">
        <ele>658.05</ele>
        <time>2019-10-06T07:13:35Z</time>
      </trkpt>
      <trkpt lat="46.37439" lon="5.76745">
        <ele>657.09</ele>
        <time>2019-10-06T07:13:48Z</time>
      </trkpt>
      <trkpt lat="46.37448" lon="5.76762">
        <ele>656.22</ele>
        <time>2019-10-06T07:13:58Z</time>
      </trkpt>
      <trkpt lat="46.37449" lon="5.76762">
        <ele>656.27</ele>
        <time>2019-10-06T07:13:59Z</time>
      </trkpt>
      <trkpt lat="46.3745" lon="5.76763">
        <ele>656.26</ele>
        <time>2019-10-06T07:14:00Z</time>
      </trkpt>
      <trkpt lat="46.37451" lon="5.76765">
        <ele>656.26</ele>
        <time>2019-10-06T07:14:01Z</time>
      </trkpt>
      <trkpt lat="46.37451" lon="5.76767">
        <ele>656.26</ele>
        <time>2019-10-06T07:14:02Z</time>
      </trkpt>
      <trkpt lat="46.37451" lon="5.76769">
        <ele>656.24</ele>
        <time>2019-10-06T07:14:03Z</time>
      </trkpt>
      <trkpt lat="46.37451" lon="5.76771">
        <ele>656.23</ele>
        <time>2019-10-06T07:14:04Z</time>
      </trkpt>
      <trkpt lat="46.37452" lon="5.76773">
        <ele>656.21</ele>
        <time>2019-10-06T07:14:06Z</time>
      </trkpt>
      <trkpt lat="46.37453" lon="5.76774">
        <ele>656.2</ele>
        <time>2019-10-06T07:14:07Z</time>
      </trkpt>
      <trkpt lat="46.37453" lon="5.76776">
        <ele>656.19</ele>
        <time>2019-10-06T07:14:08Z</time>
      </trkpt>
      <trkpt lat="46.37454" lon="5.76778">
        <ele>655.23</ele>
        <time>2019-10-06T07:14:09Z</time>
      </trkpt>
      <trkpt lat="46.3746" lon="5.76786">
        <ele>654.3</ele>
        <time>2019-10-06T07:14:16Z</time>
      </trkpt>
      <trkpt lat="46.37464" lon="5.7679">
        <ele>654.28</ele>
        <time>2019-10-06T07:14:20Z</time>
      </trkpt>
      <trkpt lat="46.37464" lon="5.76792">
        <ele>654.25</ele>
        <time>2019-10-06T07:14:21Z</time>
      </trkpt>
      <trkpt lat="46.37464" lon="5.76793">
        <ele>654.25</ele>
        <time>2019-10-06T07:14:22Z</time>
      </trkpt>
      <trkpt lat="46.37464" lon="5.76795">
        <ele>654.24</ele>
        <time>2019-10-06T07:14:23Z</time>
      </trkpt>
      <trkpt lat="46.3747" lon="5.76805">
        <ele>654.22</ele>
        <time>2019-10-06T07:14:30Z</time>
      </trkpt>
      <trkpt lat="46.37471" lon="5.7681">
        <ele>654.19</ele>
        <time>2019-10-06T07:14:32Z</time>
      </trkpt>
      <trkpt lat="46.37471" lon="5.76811">
        <ele>654.17</ele>
        <time>2019-10-06T07:14:33Z</time>
      </trkpt>
      <trkpt lat="46.37473" lon="5.76814">
        <ele>654.16</ele>
        <time>2019-10-06T07:14:35Z</time>
      </trkpt>
      <trkpt lat="46.37474" lon="5.76816">
        <ele>654.15</ele>
        <time>2019-10-06T07:14:36Z</time>
      </trkpt>
      <trkpt lat="46.37483" lon="5.76834">
        <ele>653.17</ele>
        <time>2019-10-06T07:14:46Z</time>
      </trkpt>
      <trkpt lat="46.37484" lon="5.76836">
        <ele>653.16</ele>
        <time>2019-10-06T07:14:47Z</time>
      </trkpt>
      <trkpt lat="46.37485" lon="5.76837">
        <ele>653.21</ele>
        <time>2019-10-06T07:14:48Z</time>
      </trkpt>
      <trkpt lat="46.37486" lon="5.76839">
        <ele>653.2</ele>
        <time>2019-10-06T07:14:49Z</time>
      </trkpt>
      <trkpt lat="46.37487" lon="5.76842">
        <ele>652.25</ele>
        <time>2019-10-06T07:14:50Z</time>
      </trkpt>
      <trkpt lat="46.37492" lon="5.7685">
        <ele>652.21</ele>
        <time>2019-10-06T07:14:54Z</time>
      </trkpt>
      <trkpt lat="46.37492" lon="5.76851">
        <ele>652.19</ele>
        <time>2019-10-06T07:14:55Z</time>
      </trkpt>
      <trkpt lat="46.37493" lon="5.76854">
        <ele>651.44</ele>
        <time>2019-10-06T07:14:56Z</time>
      </trkpt>
      <trkpt lat="46.37494" lon="5.76856">
        <ele>651.38</ele>
        <time>2019-10-06T07:14:57Z</time>
      </trkpt>
      <trkpt lat="46.37495" lon="5.76857">
        <ele>651.4</ele>
        <time>2019-10-06T07:14:58Z</time>
      </trkpt>
      <trkpt lat="46.37496" lon="5.76859">
        <ele>651.41</ele>
        <time>2019-10-06T07:14:59Z</time>
      </trkpt>
      <trkpt lat="46.37497" lon="5.7686">
        <ele>651.32</ele>
        <time>2019-10-06T07:15:00Z</time>
      </trkpt>
      <trkpt lat="46.37498" lon="5.76861">
        <ele>651.31</ele>
        <time>2019-10-06T07:15:01Z</time>
      </trkpt>
      <trkpt lat="46.37499" lon="5.76863">
        <ele>651.32</ele>
        <time>2019-10-06T07:15:02Z</time>
      </trkpt>
      <trkpt lat="46.375" lon="5.76864">
        <ele>651.32</ele>
        <time>2019-10-06T07:15:03Z</time>
      </trkpt>
      <trkpt lat="46.375" lon="5.76866">
        <ele>651.37</ele>
        <time>2019-10-06T07:15:04Z</time>
      </trkpt>
      <trkpt lat="46.37501" lon="5.76868">
        <ele>651.36</ele>
        <time>2019-10-06T07:15:05Z</time>
      </trkpt>
      <trkpt lat="46.37502" lon="5.76869">
        <ele>651.35</ele>
        <time>2019-10-06T07:15:06Z</time>
      </trkpt>
      <trkpt lat="46.37502" lon="5.76871">
        <ele>651.35</ele>
        <time>2019-10-06T07:15:07Z</time>
      </trkpt>
      <trkpt lat="46.37503" lon="5.76872">
        <ele>651.34</ele>
        <time>2019-10-06T07:15:08Z</time>
      </trkpt>
      <trkpt lat="46.37503" lon="5.76874">
        <ele>651.33</ele>
        <time>2019-10-06T07:15:09Z</time>
      </trkpt>
      <trkpt lat="46.37504" lon="5.76876">
        <ele>651.32</ele>
        <time>2019-10-06T07:15:10Z</time>
      </trkpt>
      <trkpt lat="46.37506" lon="5.7688">
        <ele>650.38</ele>
        <time>2019-10-06T07:15:13Z</time>
      </trkpt>
      <trkpt lat="46.37508" lon="5.76881">
        <ele>650.36</ele>
        <time>2019-10-06T07:15:14Z</time>
      </trkpt>
      <trkpt lat="46.37509" lon="5.76882">
        <ele>650.35</ele>
        <time>2019-10-06T07:15:15Z</time>
      </trkpt>
      <trkpt lat="46.3751" lon="5.76884">
        <ele>650.35</ele>
        <time>2019-10-06T07:15:16Z</time>
      </trkpt>
      <trkpt lat="46.37517" lon="5.76893">
        <ele>650.28</ele>
        <time>2019-10-06T07:15:23Z</time>
      </trkpt>
      <trkpt lat="46.37519" lon="5.76894">
        <ele>650.29</ele>
        <time>2019-10-06T07:15:24Z</time>
      </trkpt>
      <trkpt lat="46.3752" lon="5.76895">
        <ele>650.28</ele>
        <time>2019-10-06T07:15:25Z</time>
      </trkpt>
      <trkpt lat="46.37528" lon="5.769">
        <ele>649.41</ele>
        <time>2019-10-06T07:15:31Z</time>
      </trkpt>
      <trkpt lat="46.37535" lon="5.76901">
        <ele>649.39</ele>
        <time>2019-10-06T07:15:35Z</time>
      </trkpt>
      <trkpt lat="46.37538" lon="5.76901">
        <ele>649.37</ele>
        <time>2019-10-06T07:15:37Z</time>
      </trkpt>
      <trkpt lat="46.3755" lon="5.7691">
        <ele>646.37</ele>
        <time>2019-10-06T07:15:46Z</time>
      </trkpt>
      <trkpt lat="46.37554" lon="5.76916">
        <ele>644.85</ele>
        <time>2019-10-06T07:15:51Z</time>
      </trkpt>
      <trkpt lat="46.37555" lon="5.76918">
        <ele>644.86</ele>
        <time>2019-10-06T07:15:52Z</time>
      </trkpt>
      <trkpt lat="46.37555" lon="5.7692">
        <ele>644.85</ele>
        <time>2019-10-06T07:15:53Z</time>
      </trkpt>
      <trkpt lat="46.37557" lon="5.76921">
        <ele>644.85</ele>
        <time>2019-10-06T07:15:54Z</time>
      </trkpt>
      <trkpt lat="46.37558" lon="5.76923">
        <ele>644.8</ele>
        <time>2019-10-06T07:15:55Z</time>
      </trkpt>
      <trkpt lat="46.37575" lon="5.76935">
        <ele>643.94</ele>
        <time>2019-10-06T07:16:07Z</time>
      </trkpt>
      <trkpt lat="46.3758" lon="5.76943">
        <ele>643.1</ele>
        <time>2019-10-06T07:16:12Z</time>
      </trkpt>
      <trkpt lat="46.37582" lon="5.76945">
        <ele>642.18</ele>
        <time>2019-10-06T07:16:13Z</time>
      </trkpt>
      <trkpt lat="46.37584" lon="5.76946">
        <ele>642.16</ele>
        <time>2019-10-06T07:16:14Z</time>
      </trkpt>
      <trkpt lat="46.3759" lon="5.76951">
        <ele>641.31</ele>
        <time>2019-10-06T07:16:18Z</time>
      </trkpt>
      <trkpt lat="46.37604" lon="5.76959">
        <ele>640.32</ele>
        <time>2019-10-06T07:16:28Z</time>
      </trkpt>
      <trkpt lat="46.37611" lon="5.76965">
        <ele>639.5</ele>
        <time>2019-10-06T07:16:33Z</time>
      </trkpt>
      <trkpt lat="46.37612" lon="5.76966">
        <ele>639.49</ele>
        <time>2019-10-06T07:16:34Z</time>
      </trkpt>
      <trkpt lat="46.37614" lon="5.76967">
        <ele>639.47</ele>
        <time>2019-10-06T07:16:35Z</time>
      </trkpt>
      <trkpt lat="46.37618" lon="5.76969">
        <ele>639.46</ele>
        <time>2019-10-06T07:16:37Z</time>
      </trkpt>
      <trkpt lat="46.37619" lon="5.7697">
        <ele>639.45</ele>
        <time>2019-10-06T07:16:38Z</time>
      </trkpt>
      <trkpt lat="46.37619" lon="5.76972">
        <ele>639.43</ele>
        <time>2019-10-06T07:16:39Z</time>
      </trkpt>
      <trkpt lat="46.37621" lon="5.76974">
        <ele>639.43</ele>
        <time>2019-10-06T07:16:41Z</time>
      </trkpt>
      <trkpt lat="46.37642" lon="5.76977">
        <ele>638.58</ele>
        <time>2019-10-06T07:16:52Z</time>
      </trkpt>
      <trkpt lat="46.37646" lon="5.76978">
        <ele>638.56</ele>
        <time>2019-10-06T07:16:54Z</time>
      </trkpt>
      <trkpt lat="46.37663" lon="5.76979">
        <ele>636.73</ele>
        <time>2019-10-06T07:17:07Z</time>
      </trkpt>
      <trkpt lat="46.37667" lon="5.76978">
        <ele>636.71</ele>
        <time>2019-10-06T07:17:09Z</time>
      </trkpt>
      <trkpt lat="46.37667" lon="5.76977">
        <ele>636.71</ele>
        <time>2019-10-06T07:17:10Z</time>
      </trkpt>
      <trkpt lat="46.37678" lon="5.76971">
        <ele>636.63</ele>
        <time>2019-10-06T07:17:19Z</time>
      </trkpt>
      <trkpt lat="46.37694" lon="5.76971">
        <ele>636.57</ele>
        <time>2019-10-06T07:17:27Z</time>
      </trkpt>
      <trkpt lat="46.37705" lon="5.76969">
        <ele>635.62</ele>
        <time>2019-10-06T07:17:33Z</time>
      </trkpt>
      <trkpt lat="46.37719" lon="5.76975">
        <ele>633.87</ele>
        <time>2019-10-06T07:17:45Z</time>
      </trkpt>
      <trkpt lat="46.37721" lon="5.76975">
        <ele>633.86</ele>
        <time>2019-10-06T07:17:46Z</time>
      </trkpt>
      <trkpt lat="46.37723" lon="5.7698">
        <ele>633.06</ele>
        <time>2019-10-06T07:17:49Z</time>
      </trkpt>
      <trkpt lat="46.37734" lon="5.76994">
        <ele>630.38</ele>
        <time>2019-10-06T07:18:01Z</time>
      </trkpt>
      <trkpt lat="46.37736" lon="5.77004">
        <ele>627.37</ele>
        <time>2019-10-06T07:18:12Z</time>
      </trkpt>
      <trkpt lat="46.37738" lon="5.77013">
        <ele>625.25</ele>
        <time>2019-10-06T07:18:18Z</time>
      </trkpt>
      <trkpt lat="46.3774" lon="5.77016">
        <ele>625.21</ele>
        <time>2019-10-06T07:18:20Z</time>
      </trkpt>
      <trkpt lat="46.3775" lon="5.7702">
        <ele>624.18</ele>
        <time>2019-10-06T07:18:27Z</time>
      </trkpt>
      <trkpt lat="46.37753" lon="5.77023">
        <ele>624.21</ele>
        <time>2019-10-06T07:18:30Z</time>
      </trkpt>
      <trkpt lat="46.37766" lon="5.7702">
        <ele>623.51</ele>
        <time>2019-10-06T07:18:39Z</time>
      </trkpt>
      <trkpt lat="46.37771" lon="5.77022">
        <ele>623.51</ele>
        <time>2019-10-06T07:18:41Z</time>
      </trkpt>
      <trkpt lat="46.37786" lon="5.7701">
        <ele>622.62</ele>
        <time>2019-10-06T07:18:55Z</time>
      </trkpt>
      <trkpt lat="46.37803" lon="5.76993">
        <ele>619.88</ele>
        <time>2019-10-06T07:19:14Z</time>
      </trkpt>
      <trkpt lat="46.37824" lon="5.76986">
        <ele>618.25</ele>
        <time>2019-10-06T07:19:33Z</time>
      </trkpt>
      <trkpt lat="46.37839" lon="5.76993">
        <ele>616.2</ele>
        <time>2019-10-06T07:19:48Z</time>
      </trkpt>
      <trkpt lat="46.3785" lon="5.77">
        <ele>615.41</ele>
        <time>2019-10-06T07:19:55Z</time>
      </trkpt>
      <trkpt lat="46.37852" lon="5.77003">
        <ele>614.51</ele>
        <time>2019-10-06T07:19:57Z</time>
      </trkpt>
      <trkpt lat="46.37853" lon="5.7702">
        <ele>612.59</ele>
        <time>2019-10-06T07:20:06Z</time>
      </trkpt>
      <trkpt lat="46.37857" lon="5.77024">
        <ele>611.72</ele>
        <time>2019-10-06T07:20:09Z</time>
      </trkpt>
      <trkpt lat="46.37864" lon="5.77048">
        <ele>609.98</ele>
        <time>2019-10-06T07:20:22Z</time>
      </trkpt>
      <trkpt lat="46.37862" lon="5.77055">
        <ele>609.17</ele>
        <time>2019-10-06T07:20:32Z</time>
      </trkpt>
      <trkpt lat="46.37846" lon="5.77056">
        <ele>608.22</ele>
        <time>2019-10-06T07:20:50Z</time>
      </trkpt>
      <trkpt lat="46.37832" lon="5.77067">
        <ele>606.44</ele>
        <time>2019-10-06T07:21:08Z</time>
      </trkpt>
      <trkpt lat="46.37812" lon="5.77081">
        <ele>603.85</ele>
        <time>2019-10-06T07:21:29Z</time>
      </trkpt>
      <trkpt lat="46.37809" lon="5.77083">
        <ele>603.84</ele>
        <time>2019-10-06T07:21:31Z</time>
      </trkpt>
      <trkpt lat="46.37794" lon="5.77089">
        <ele>602.81</ele>
        <time>2019-10-06T07:21:40Z</time>
      </trkpt>
      <trkpt lat="46.37782" lon="5.77098">
        <ele>601.01</ele>
        <time>2019-10-06T07:21:51Z</time>
      </trkpt>
      <trkpt lat="46.37779" lon="5.77099">
        <ele>601.01</ele>
        <time>2019-10-06T07:21:53Z</time>
      </trkpt>
      <trkpt lat="46.37769" lon="5.77108">
        <ele>600</ele>
        <time>2019-10-06T07:22:01Z</time>
      </trkpt>
      <trkpt lat="46.37766" lon="5.77109">
        <ele>600</ele>
        <time>2019-10-06T07:22:03Z</time>
      </trkpt>
      <trkpt lat="46.37747" lon="5.77104">
        <ele>599.94</ele>
        <time>2019-10-06T07:22:15Z</time>
      </trkpt>
      <trkpt lat="46.3773" lon="5.77104">
        <ele>599.88</ele>
        <time>2019-10-06T07:22:23Z</time>
      </trkpt>
      <trkpt lat="46.37724" lon="5.77103">
        <ele>599.86</ele>
        <time>2019-10-06T07:22:27Z</time>
      </trkpt>
      <trkpt lat="46.37717" lon="5.77102">
        <ele>599.8</ele>
        <time>2019-10-06T07:22:31Z</time>
      </trkpt>
      <trkpt lat="46.37713" lon="5.77103">
        <ele>599.78</ele>
        <time>2019-10-06T07:22:33Z</time>
      </trkpt>
      <trkpt lat="46.37705" lon="5.77099">
        <ele>599.73</ele>
        <time>2019-10-06T07:22:38Z</time>
      </trkpt>
      <trkpt lat="46.37699" lon="5.77098">
        <ele>599.68</ele>
        <time>2019-10-06T07:22:42Z</time>
      </trkpt>
      <trkpt lat="46.37692" lon="5.77098">
        <ele>599.64</ele>
        <time>2019-10-06T07:22:46Z</time>
      </trkpt>
      <trkpt lat="46.37675" lon="5.77088">
        <ele>599.5</ele>
        <time>2019-10-06T07:22:58Z</time>
      </trkpt>
      <trkpt lat="46.37666" lon="5.77087">
        <ele>599.4</ele>
        <time>2019-10-06T07:23:05Z</time>
      </trkpt>
      <trkpt lat="46.37662" lon="5.77089">
        <ele>599.36</ele>
        <time>2019-10-06T07:23:08Z</time>
      </trkpt>
      <trkpt lat="46.37643" lon="5.77087">
        <ele>599.17</ele>
        <time>2019-10-06T07:23:19Z</time>
      </trkpt>
      <trkpt lat="46.37635" lon="5.7708">
        <ele>601.38</ele>
        <time>2019-10-06T07:23:24Z</time>
      </trkpt>
      <trkpt lat="46.37633" lon="5.77079">
        <ele>601.36</ele>
        <time>2019-10-06T07:23:25Z</time>
      </trkpt>
      <trkpt lat="46.37616" lon="5.7708">
        <ele>601.94</ele>
        <time>2019-10-06T07:23:36Z</time>
      </trkpt>
      <trkpt lat="46.37611" lon="5.77077">
        <ele>601.83</ele>
        <time>2019-10-06T07:23:39Z</time>
      </trkpt>
      <trkpt lat="46.37594" lon="5.77075">
        <ele>601.61</ele>
        <time>2019-10-06T07:23:49Z</time>
      </trkpt>
      <trkpt lat="46.37575" lon="5.77068">
        <ele>601.31</ele>
        <time>2019-10-06T07:24:02Z</time>
      </trkpt>
      <trkpt lat="46.37568" lon="5.77066">
        <ele>601.19</ele>
        <time>2019-10-06T07:24:06Z</time>
      </trkpt>
      <trkpt lat="46.37565" lon="5.77065">
        <ele>601.16</ele>
        <time>2019-10-06T07:24:08Z</time>
      </trkpt>
      <trkpt lat="46.37549" lon="5.77052">
        <ele>601.72</ele>
        <time>2019-10-06T07:24:21Z</time>
      </trkpt>
      <trkpt lat="46.37527" lon="5.77032">
        <ele>602.89</ele>
        <time>2019-10-06T07:24:41Z</time>
      </trkpt>
      <trkpt lat="46.37519" lon="5.77027">
        <ele>602.79</ele>
        <time>2019-10-06T07:24:47Z</time>
      </trkpt>
      <trkpt lat="46.37499" lon="5.77007">
        <ele>604.23</ele>
        <time>2019-10-06T07:25:05Z</time>
      </trkpt>
      <trkpt lat="46.3748" lon="5.76981">
        <ele>604.88</ele>
        <time>2019-10-06T07:25:22Z</time>
      </trkpt>
      <trkpt lat="46.37476" lon="5.76974">
        <ele>604.83</ele>
        <time>2019-10-06T07:25:26Z</time>
      </trkpt>
      <trkpt lat="46.37465" lon="5.76952">
        <ele>606.34</ele>
        <time>2019-10-06T07:25:40Z</time>
      </trkpt>
      <trkpt lat="46.37455" lon="5.76927">
        <ele>608.03</ele>
        <time>2019-10-06T07:25:54Z</time>
      </trkpt>
      <trkpt lat="46.37443" lon="5.76904">
        <ele>609.62</ele>
        <time>2019-10-06T07:26:06Z</time>
      </trkpt>
      <trkpt lat="46.37423" lon="5.76878">
        <ele>610.94</ele>
        <time>2019-10-06T07:26:25Z</time>
      </trkpt>
      <trkpt lat="46.37414" lon="5.76867">
        <ele>611.71</ele>
        <time>2019-10-06T07:26:31Z</time>
      </trkpt>
      <trkpt lat="46.374" lon="5.76851">
        <ele>612.53</ele>
        <time>2019-10-06T07:26:40Z</time>
      </trkpt>
      <trkpt lat="46.37387" lon="5.76826">
        <ele>614.03</ele>
        <time>2019-10-06T07:26:54Z</time>
      </trkpt>
      <trkpt lat="46.37385" lon="5.76813">
        <ele>614.06</ele>
        <time>2019-10-06T07:27:00Z</time>
      </trkpt>
      <trkpt lat="46.37382" lon="5.768">
        <ele>614.87</ele>
        <time>2019-10-06T07:27:07Z</time>
      </trkpt>
      <trkpt lat="46.3738" lon="5.76795">
        <ele>614.84</ele>
        <time>2019-10-06T07:27:10Z</time>
      </trkpt>
      <trkpt lat="46.3737" lon="5.76775">
        <ele>614.82</ele>
        <time>2019-10-06T07:27:21Z</time>
      </trkpt>
      <trkpt lat="46.37363" lon="5.76761">
        <ele>614.86</ele>
        <time>2019-10-06T07:27:30Z</time>
      </trkpt>
      <trkpt lat="46.37358" lon="5.76751">
        <ele>614.88</ele>
        <time>2019-10-06T07:27:34Z</time>
      </trkpt>
      <trkpt lat="46.37347" lon="5.76716">
        <ele>616.76</ele>
        <time>2019-10-06T07:27:50Z</time>
      </trkpt>
      <trkpt lat="46.37346" lon="5.76685">
        <ele>616.85</ele>
        <time>2019-10-06T07:28:07Z</time>
      </trkpt>
      <trkpt lat="46.37343" lon="5.7666">
        <ele>617.77</ele>
        <time>2019-10-06T07:28:21Z</time>
      </trkpt>
      <trkpt lat="46.37338" lon="5.76643">
        <ele>619.56</ele>
        <time>2019-10-06T07:28:30Z</time>
      </trkpt>
      <trkpt lat="46.37336" lon="5.76635">
        <ele>619.57</ele>
        <time>2019-10-06T07:28:34Z</time>
      </trkpt>
      <trkpt lat="46.3733" lon="5.76613">
        <ele>621.27</ele>
        <time>2019-10-06T07:28:48Z</time>
      </trkpt>
      <trkpt lat="46.37318" lon="5.76584">
        <ele>622.92</ele>
        <time>2019-10-06T07:29:05Z</time>
      </trkpt>
      <trkpt lat="46.37307" lon="5.76555">
        <ele>623.84</ele>
        <time>2019-10-06T07:29:18Z</time>
      </trkpt>
      <trkpt lat="46.37304" lon="5.76547">
        <ele>623.85</ele>
        <time>2019-10-06T07:29:21Z</time>
      </trkpt>
      <trkpt lat="46.3729" lon="5.76523">
        <ele>625.49</ele>
        <time>2019-10-06T07:29:38Z</time>
      </trkpt>
      <trkpt lat="46.37282" lon="5.76506">
        <ele>626.36</ele>
        <time>2019-10-06T07:29:48Z</time>
      </trkpt>
      <trkpt lat="46.37276" lon="5.76494">
        <ele>627.27</ele>
        <time>2019-10-06T07:29:54Z</time>
      </trkpt>
      <trkpt lat="46.37271" lon="5.76485">
        <ele>627.29</ele>
        <time>2019-10-06T07:29:58Z</time>
      </trkpt>
      <trkpt lat="46.37258" lon="5.76461">
        <ele>628.11</ele>
        <time>2019-10-06T07:30:10Z</time>
      </trkpt>
      <trkpt lat="46.37253" lon="5.76449">
        <ele>628.14</ele>
        <time>2019-10-06T07:30:16Z</time>
      </trkpt>
      <trkpt lat="46.3724" lon="5.76428">
        <ele>629.91</ele>
        <time>2019-10-06T07:30:30Z</time>
      </trkpt>
      <trkpt lat="46.37227" lon="5.76411">
        <ele>631.67</ele>
        <time>2019-10-06T07:30:41Z</time>
      </trkpt>
      <trkpt lat="46.3722" lon="5.76398">
        <ele>633.24</ele>
        <time>2019-10-06T07:30:49Z</time>
      </trkpt>
      <trkpt lat="46.37216" lon="5.76385">
        <ele>633.25</ele>
        <time>2019-10-06T07:30:55Z</time>
      </trkpt>
      <trkpt lat="46.37206" lon="5.76366">
        <ele>635.06</ele>
        <time>2019-10-06T07:31:08Z</time>
      </trkpt>
      <trkpt lat="46.37193" lon="5.76349">
        <ele>636.08</ele>
        <time>2019-10-06T07:31:20Z</time>
      </trkpt>
      <trkpt lat="46.37192" lon="5.76348">
        <ele>636.08</ele>
        <time>2019-10-06T07:31:21Z</time>
      </trkpt>
      <trkpt lat="46.37179" lon="5.76326">
        <ele>636.91</ele>
        <time>2019-10-06T07:31:36Z</time>
      </trkpt>
      <trkpt lat="46.3717" lon="5.76314">
        <ele>636.9</ele>
        <time>2019-10-06T07:31:44Z</time>
      </trkpt>
      <trkpt lat="46.37148" lon="5.7629">
        <ele>636.87</ele>
        <time>2019-10-06T07:32:01Z</time>
      </trkpt>
      <trkpt lat="46.3713" lon="5.76273">
        <ele>636.86</ele>
        <time>2019-10-06T07:32:13Z</time>
      </trkpt>
      <trkpt lat="46.37112" lon="5.76264">
        <ele>639.58</ele>
        <time>2019-10-06T07:32:25Z</time>
      </trkpt>
      <trkpt lat="46.37101" lon="5.76244">
        <ele>642.17</ele>
        <time>2019-10-06T07:32:41Z</time>
      </trkpt>
      <trkpt lat="46.37083" lon="5.76229">
        <ele>642.87</ele>
        <time>2019-10-06T07:32:54Z</time>
      </trkpt>
      <trkpt lat="46.37068" lon="5.76219">
        <ele>644.44</ele>
        <time>2019-10-06T07:33:07Z</time>
      </trkpt>
      <trkpt lat="46.37066" lon="5.76216">
        <ele>644.42</ele>
        <time>2019-10-06T07:33:09Z</time>
      </trkpt>
      <trkpt lat="46.37047" lon="5.76201">
        <ele>644.33</ele>
        <time>2019-10-06T07:33:24Z</time>
      </trkpt>
      <trkpt lat="46.37044" lon="5.76201">
        <ele>641.92</ele>
        <time>2019-10-06T07:33:26Z</time>
      </trkpt>
      <trkpt lat="46.37041" lon="5.76198">
        <ele>641.91</ele>
        <time>2019-10-06T07:33:28Z</time>
      </trkpt>
      <trkpt lat="46.37027" lon="5.76188">
        <ele>641.91</ele>
        <time>2019-10-06T07:33:37Z</time>
      </trkpt>
      <trkpt lat="46.37022" lon="5.76184">
        <ele>641.91</ele>
        <time>2019-10-06T07:33:40Z</time>
      </trkpt>
      <trkpt lat="46.37015" lon="5.76176">
        <ele>641.13</ele>
        <time>2019-10-06T07:33:46Z</time>
      </trkpt>
      <trkpt lat="46.36998" lon="5.7617">
        <ele>641.11</ele>
        <time>2019-10-06T07:34:01Z</time>
      </trkpt>
      <trkpt lat="46.3699" lon="5.7617">
        <ele>640.29</ele>
        <time>2019-10-06T07:34:09Z</time>
      </trkpt>
      <trkpt lat="46.36961" lon="5.76165">
        <ele>640.28</ele>
        <time>2019-10-06T07:34:26Z</time>
      </trkpt>
      <trkpt lat="46.36954" lon="5.76161">
        <ele>640.28</ele>
        <time>2019-10-06T07:34:31Z</time>
      </trkpt>
      <trkpt lat="46.36947" lon="5.7616">
        <ele>640.27</ele>
        <time>2019-10-06T07:34:35Z</time>
      </trkpt>
      <trkpt lat="46.36925" lon="5.76154">
        <ele>640.22</ele>
        <time>2019-10-06T07:34:49Z</time>
      </trkpt>
      <trkpt lat="46.36909" lon="5.76153">
        <ele>640.19</ele>
        <time>2019-10-06T07:35:00Z</time>
      </trkpt>
      <trkpt lat="46.36896" lon="5.76153">
        <ele>640.17</ele>
        <time>2019-10-06T07:35:08Z</time>
      </trkpt>
      <trkpt lat="46.36884" lon="5.76148">
        <ele>642.53</ele>
        <time>2019-10-06T07:35:17Z</time>
      </trkpt>
      <trkpt lat="46.36874" lon="5.76144">
        <ele>642.52</ele>
        <time>2019-10-06T07:35:24Z</time>
      </trkpt>
      <trkpt lat="46.36853" lon="5.76145">
        <ele>644.03</ele>
        <time>2019-10-06T07:35:40Z</time>
      </trkpt>
      <trkpt lat="46.36845" lon="5.76149">
        <ele>644.01</ele>
        <time>2019-10-06T07:35:46Z</time>
      </trkpt>
      <trkpt lat="46.36836" lon="5.76143">
        <ele>643.98</ele>
        <time>2019-10-06T07:35:51Z</time>
      </trkpt>
      <trkpt lat="46.36823" lon="5.76135">
        <ele>643.94</ele>
        <time>2019-10-06T07:35:58Z</time>
      </trkpt>
      <trkpt lat="46.36818" lon="5.76135">
        <ele>641.65</ele>
        <time>2019-10-06T07:36:00Z</time>
      </trkpt>
      <trkpt lat="46.36806" lon="5.76134">
        <ele>639.87</ele>
        <time>2019-10-06T07:36:06Z</time>
      </trkpt>
      <trkpt lat="46.36801" lon="5.76136">
        <ele>639.85</ele>
        <time>2019-10-06T07:36:09Z</time>
      </trkpt>
      <trkpt lat="46.36778" lon="5.76132">
        <ele>639.06</ele>
        <time>2019-10-06T07:36:23Z</time>
      </trkpt>
      <trkpt lat="46.36761" lon="5.7613">
        <ele>638.04</ele>
        <time>2019-10-06T07:36:34Z</time>
      </trkpt>
      <trkpt lat="46.36751" lon="5.76128">
        <ele>638.08</ele>
        <time>2019-10-06T07:36:40Z</time>
      </trkpt>
      <trkpt lat="46.36726" lon="5.76125">
        <ele>638.02</ele>
        <time>2019-10-06T07:36:58Z</time>
      </trkpt>
      <trkpt lat="46.36723" lon="5.76123">
        <ele>638.01</ele>
        <time>2019-10-06T07:37:00Z</time>
      </trkpt>
      <trkpt lat="46.3672" lon="5.76123">
        <ele>638</ele>
        <time>2019-10-06T07:37:03Z</time>
      </trkpt>
      <trkpt lat="46.36712" lon="5.76113">
        <ele>637.97</ele>
        <time>2019-10-06T07:37:11Z</time>
      </trkpt>
      <trkpt lat="46.367" lon="5.76115">
        <ele>637.96</ele>
        <time>2019-10-06T07:37:16Z</time>
      </trkpt>
      <trkpt lat="46.36681" lon="5.76116">
        <ele>637.96</ele>
        <time>2019-10-06T07:37:25Z</time>
      </trkpt>
      <trkpt lat="46.36664" lon="5.76115">
        <ele>640.22</ele>
        <time>2019-10-06T07:37:34Z</time>
      </trkpt>
      <trkpt lat="46.36655" lon="5.76113">
        <ele>642.14</ele>
        <time>2019-10-06T07:37:41Z</time>
      </trkpt>
      <trkpt lat="46.36642" lon="5.76096">
        <ele>643.75</ele>
        <time>2019-10-06T07:37:52Z</time>
      </trkpt>
      <trkpt lat="46.36641" lon="5.76093">
        <ele>644.86</ele>
        <time>2019-10-06T07:37:54Z</time>
      </trkpt>
      <trkpt lat="46.36633" lon="5.76082">
        <ele>645.64</ele>
        <time>2019-10-06T07:38:02Z</time>
      </trkpt>
      <trkpt lat="46.36628" lon="5.76074">
        <ele>646.42</ele>
        <time>2019-10-06T07:38:07Z</time>
      </trkpt>
      <trkpt lat="46.36617" lon="5.76054">
        <ele>648.96</ele>
        <time>2019-10-06T07:38:20Z</time>
      </trkpt>
      <trkpt lat="46.366" lon="5.76032">
        <ele>651.55</ele>
        <time>2019-10-06T07:38:35Z</time>
      </trkpt>
      <trkpt lat="46.36598" lon="5.76029">
        <ele>651.57</ele>
        <time>2019-10-06T07:38:37Z</time>
      </trkpt>
      <trkpt lat="46.36593" lon="5.76025">
        <ele>652.33</ele>
        <time>2019-10-06T07:38:41Z</time>
      </trkpt>
      <trkpt lat="46.36584" lon="5.76015">
        <ele>652.36</ele>
        <time>2019-10-06T07:38:48Z</time>
      </trkpt>
      <trkpt lat="46.36568" lon="5.75993">
        <ele>654.93</ele>
        <time>2019-10-06T07:39:01Z</time>
      </trkpt>
      <trkpt lat="46.36563" lon="5.75988">
        <ele>655.94</ele>
        <time>2019-10-06T07:39:06Z</time>
      </trkpt>
      <trkpt lat="46.36557" lon="5.75969">
        <ele>656.61</ele>
        <time>2019-10-06T07:39:15Z</time>
      </trkpt>
      <trkpt lat="46.36546" lon="5.75938">
        <ele>658.43</ele>
        <time>2019-10-06T07:39:28Z</time>
      </trkpt>
      <trkpt lat="46.36545" lon="5.75933">
        <ele>658.43</ele>
        <time>2019-10-06T07:39:30Z</time>
      </trkpt>
      <trkpt lat="46.3654" lon="5.75925">
        <ele>658.41</ele>
        <time>2019-10-06T07:39:35Z</time>
      </trkpt>
      <trkpt lat="46.36532" lon="5.759">
        <ele>659.19</ele>
        <time>2019-10-06T07:39:48Z</time>
      </trkpt>
      <trkpt lat="46.3653" lon="5.75896">
        <ele>659.18</ele>
        <time>2019-10-06T07:39:50Z</time>
      </trkpt>
      <trkpt lat="46.36531" lon="5.75865">
        <ele>659.25</ele>
        <time>2019-10-06T07:40:01Z</time>
      </trkpt>
      <trkpt lat="46.36533" lon="5.75854">
        <ele>659.28</ele>
        <time>2019-10-06T07:40:06Z</time>
      </trkpt>
      <trkpt lat="46.36536" lon="5.75838">
        <ele>656.91</ele>
        <time>2019-10-06T07:40:13Z</time>
      </trkpt>
      <trkpt lat="46.36538" lon="5.75826">
        <ele>655.92</ele>
        <time>2019-10-06T07:40:18Z</time>
      </trkpt>
      <trkpt lat="46.36539" lon="5.75823">
        <ele>655.93</ele>
        <time>2019-10-06T07:40:20Z</time>
      </trkpt>
      <trkpt lat="46.36539" lon="5.75821">
        <ele>655.91</ele>
        <time>2019-10-06T07:40:21Z</time>
      </trkpt>
      <trkpt lat="46.36539" lon="5.75819">
        <ele>655.92</ele>
        <time>2019-10-06T07:40:22Z</time>
      </trkpt>
      <trkpt lat="46.36539" lon="5.75817">
        <ele>655.93</ele>
        <time>2019-10-06T07:40:23Z</time>
      </trkpt>
      <trkpt lat="46.36539" lon="5.75793">
        <ele>654.35</ele>
        <time>2019-10-06T07:40:33Z</time>
      </trkpt>
      <trkpt lat="46.36538" lon="5.75771">
        <ele>653.36</ele>
        <time>2019-10-06T07:40:41Z</time>
      </trkpt>
      <trkpt lat="46.36539" lon="5.75769">
        <ele>653.36</ele>
        <time>2019-10-06T07:40:42Z</time>
      </trkpt>
      <trkpt lat="46.36539" lon="5.75767">
        <ele>653.51</ele>
        <time>2019-10-06T07:40:43Z</time>
      </trkpt>
      <trkpt lat="46.3654" lon="5.75757">
        <ele>652.51</ele>
        <time>2019-10-06T07:40:47Z</time>
      </trkpt>
      <trkpt lat="46.36547" lon="5.75734">
        <ele>651.7</ele>
        <time>2019-10-06T07:40:58Z</time>
      </trkpt>
      <trkpt lat="46.36562" lon="5.75718">
        <ele>650.95</ele>
        <time>2019-10-06T07:41:09Z</time>
      </trkpt>
      <trkpt lat="46.36576" lon="5.75711">
        <ele>649.12</ele>
        <time>2019-10-06T07:41:19Z</time>
      </trkpt>
      <trkpt lat="46.36578" lon="5.75711">
        <ele>649.16</ele>
        <time>2019-10-06T07:41:20Z</time>
      </trkpt>
      <trkpt lat="46.36579" lon="5.75711">
        <ele>649.11</ele>
        <time>2019-10-06T07:41:21Z</time>
      </trkpt>
      <trkpt lat="46.3658" lon="5.7571">
        <ele>649.13</ele>
        <time>2019-10-06T07:41:22Z</time>
      </trkpt>
      <trkpt lat="46.36581" lon="5.7571">
        <ele>649.16</ele>
        <time>2019-10-06T07:41:23Z</time>
      </trkpt>
      <trkpt lat="46.36582" lon="5.75709">
        <ele>649.17</ele>
        <time>2019-10-06T07:41:24Z</time>
      </trkpt>
      <trkpt lat="46.36584" lon="5.75708">
        <ele>649.26</ele>
        <time>2019-10-06T07:41:25Z</time>
      </trkpt>
      <trkpt lat="46.36594" lon="5.75692">
        <ele>648.38</ele>
        <time>2019-10-06T07:41:35Z</time>
      </trkpt>
      <trkpt lat="46.36595" lon="5.7569">
        <ele>648.38</ele>
        <time>2019-10-06T07:41:36Z</time>
      </trkpt>
      <trkpt lat="46.36595" lon="5.75688">
        <ele>648.43</ele>
        <time>2019-10-06T07:41:37Z</time>
      </trkpt>
      <trkpt lat="46.36596" lon="5.75686">
        <ele>648.44</ele>
        <time>2019-10-06T07:41:38Z</time>
      </trkpt>
      <trkpt lat="46.36597" lon="5.75684">
        <ele>648.39</ele>
        <time>2019-10-06T07:41:39Z</time>
      </trkpt>
      <trkpt lat="46.36598" lon="5.75682">
        <ele>648.42</ele>
        <time>2019-10-06T07:41:40Z</time>
      </trkpt>
      <trkpt lat="46.36599" lon="5.75681">
        <ele>647.7</ele>
        <time>2019-10-06T07:41:41Z</time>
      </trkpt>
      <trkpt lat="46.36606" lon="5.75666">
        <ele>647.74</ele>
        <time>2019-10-06T07:41:49Z</time>
      </trkpt>
      <trkpt lat="46.36607" lon="5.75665">
        <ele>647.69</ele>
        <time>2019-10-06T07:41:50Z</time>
      </trkpt>
      <trkpt lat="46.36607" lon="5.75663">
        <ele>646.85</ele>
        <time>2019-10-06T07:41:51Z</time>
      </trkpt>
      <trkpt lat="46.36609" lon="5.75662">
        <ele>646.88</ele>
        <time>2019-10-06T07:41:52Z</time>
      </trkpt>
      <trkpt lat="46.3662" lon="5.75646">
        <ele>646.94</ele>
        <time>2019-10-06T07:42:02Z</time>
      </trkpt>
      <trkpt lat="46.36632" lon="5.75626">
        <ele>647.03</ele>
        <time>2019-10-06T07:42:13Z</time>
      </trkpt>
      <trkpt lat="46.36636" lon="5.7562">
        <ele>647.06</ele>
        <time>2019-10-06T07:42:17Z</time>
      </trkpt>
      <trkpt lat="46.36639" lon="5.75611">
        <ele>647.07</ele>
        <time>2019-10-06T07:42:21Z</time>
      </trkpt>
      <trkpt lat="46.36641" lon="5.7561">
        <ele>647.08</ele>
        <time>2019-10-06T07:42:22Z</time>
      </trkpt>
      <trkpt lat="46.36641" lon="5.75608">
        <ele>647.07</ele>
        <time>2019-10-06T07:42:23Z</time>
      </trkpt>
      <trkpt lat="46.36649" lon="5.75587">
        <ele>646.15</ele>
        <time>2019-10-06T07:42:33Z</time>
      </trkpt>
      <trkpt lat="46.36652" lon="5.75578">
        <ele>646.15</ele>
        <time>2019-10-06T07:42:40Z</time>
      </trkpt>
      <trkpt lat="46.36651" lon="5.75575">
        <ele>646.14</ele>
        <time>2019-10-06T07:42:41Z</time>
      </trkpt>
      <trkpt lat="46.36652" lon="5.75572">
        <ele>646.14</ele>
        <time>2019-10-06T07:42:42Z</time>
      </trkpt>
      <trkpt lat="46.36652" lon="5.75569">
        <ele>645.38</ele>
        <time>2019-10-06T07:42:43Z</time>
      </trkpt>
      <trkpt lat="46.36652" lon="5.75567">
        <ele>645.4</ele>
        <time>2019-10-06T07:42:44Z</time>
      </trkpt>
      <trkpt lat="46.36653" lon="5.75565">
        <ele>645.38</ele>
        <time>2019-10-06T07:42:45Z</time>
      </trkpt>
      <trkpt lat="46.36653" lon="5.75564">
        <ele>645.39</ele>
        <time>2019-10-06T07:42:46Z</time>
      </trkpt>
      <trkpt lat="46.36654" lon="5.75562">
        <ele>644.5</ele>
        <time>2019-10-06T07:42:47Z</time>
      </trkpt>
      <trkpt lat="46.36654" lon="5.7556">
        <ele>644.48</ele>
        <time>2019-10-06T07:42:48Z</time>
      </trkpt>
      <trkpt lat="46.36655" lon="5.75558">
        <ele>644.46</ele>
        <time>2019-10-06T07:42:49Z</time>
      </trkpt>
      <trkpt lat="46.36656" lon="5.75554">
        <ele>643.61</ele>
        <time>2019-10-06T07:42:51Z</time>
      </trkpt>
      <trkpt lat="46.36656" lon="5.75552">
        <ele>643.47</ele>
        <time>2019-10-06T07:42:52Z</time>
      </trkpt>
      <trkpt lat="46.36658" lon="5.75549">
        <ele>643.44</ele>
        <time>2019-10-06T07:42:53Z</time>
      </trkpt>
      <trkpt lat="46.36659" lon="5.75545">
        <ele>643.46</ele>
        <time>2019-10-06T07:42:54Z</time>
      </trkpt>
      <trkpt lat="46.36656" lon="5.75527">
        <ele>640.79</ele>
        <time>2019-10-06T07:43:04Z</time>
      </trkpt>
      <trkpt lat="46.36645" lon="5.75512">
        <ele>638.05</ele>
        <time>2019-10-06T07:43:16Z</time>
      </trkpt>
      <trkpt lat="46.36643" lon="5.75511">
        <ele>638.07</ele>
        <time>2019-10-06T07:43:17Z</time>
      </trkpt>
      <trkpt lat="46.36629" lon="5.75503">
        <ele>635.86</ele>
        <time>2019-10-06T07:43:25Z</time>
      </trkpt>
      <trkpt lat="46.36617" lon="5.75494">
        <ele>634.11</ele>
        <time>2019-10-06T07:43:33Z</time>
      </trkpt>
      <trkpt lat="46.36612" lon="5.75487">
        <ele>632.43</ele>
        <time>2019-10-06T07:43:37Z</time>
      </trkpt>
      <trkpt lat="46.36611" lon="5.75486">
        <ele>632.44</ele>
        <time>2019-10-06T07:43:38Z</time>
      </trkpt>
      <trkpt lat="46.36598" lon="5.75459">
        <ele>630.82</ele>
        <time>2019-10-06T07:43:51Z</time>
      </trkpt>
      <trkpt lat="46.36594" lon="5.75436">
        <ele>630.11</ele>
        <time>2019-10-06T07:44:01Z</time>
      </trkpt>
      <trkpt lat="46.36593" lon="5.7543">
        <ele>630.16</ele>
        <time>2019-10-06T07:44:04Z</time>
      </trkpt>
      <trkpt lat="46.36592" lon="5.75427">
        <ele>630.15</ele>
        <time>2019-10-06T07:44:05Z</time>
      </trkpt>
      <trkpt lat="46.36592" lon="5.75425">
        <ele>630.16</ele>
        <time>2019-10-06T07:44:06Z</time>
      </trkpt>
      <trkpt lat="46.36592" lon="5.75422">
        <ele>630.17</ele>
        <time>2019-10-06T07:44:07Z</time>
      </trkpt>
      <trkpt lat="46.36593" lon="5.7542">
        <ele>630.18</ele>
        <time>2019-10-06T07:44:08Z</time>
      </trkpt>
      <trkpt lat="46.36593" lon="5.75418">
        <ele>630.2</ele>
        <time>2019-10-06T07:44:09Z</time>
      </trkpt>
      <trkpt lat="46.36592" lon="5.75403">
        <ele>630.26</ele>
        <time>2019-10-06T07:44:17Z</time>
      </trkpt>
      <trkpt lat="46.36591" lon="5.75401">
        <ele>630.27</ele>
        <time>2019-10-06T07:44:18Z</time>
      </trkpt>
      <trkpt lat="46.36586" lon="5.75391">
        <ele>630.3</ele>
        <time>2019-10-06T07:44:23Z</time>
      </trkpt>
      <trkpt lat="46.36582" lon="5.75387">
        <ele>630.3</ele>
        <time>2019-10-06T07:44:26Z</time>
      </trkpt>
      <trkpt lat="46.36581" lon="5.75385">
        <ele>630.3</ele>
        <time>2019-10-06T07:44:27Z</time>
      </trkpt>
      <trkpt lat="46.36573" lon="5.75378">
        <ele>629.4</ele>
        <time>2019-10-06T07:44:33Z</time>
      </trkpt>
      <trkpt lat="46.36571" lon="5.75378">
        <ele>629.41</ele>
        <time>2019-10-06T07:44:34Z</time>
      </trkpt>
      <trkpt lat="46.36568" lon="5.75378">
        <ele>629.41</ele>
        <time>2019-10-06T07:44:36Z</time>
      </trkpt>
      <trkpt lat="46.36563" lon="5.75379">
        <ele>628.59</ele>
        <time>2019-10-06T07:44:40Z</time>
      </trkpt>
      <trkpt lat="46.36561" lon="5.75379">
        <ele>628.59</ele>
        <time>2019-10-06T07:44:41Z</time>
      </trkpt>
      <trkpt lat="46.36559" lon="5.75378">
        <ele>627.68</ele>
        <time>2019-10-06T07:44:42Z</time>
      </trkpt>
      <trkpt lat="46.36558" lon="5.75378">
        <ele>627.67</ele>
        <time>2019-10-06T07:44:43Z</time>
      </trkpt>
      <trkpt lat="46.36556" lon="5.75377">
        <ele>627.69</ele>
        <time>2019-10-06T07:44:44Z</time>
      </trkpt>
      <trkpt lat="46.36545" lon="5.7536">
        <ele>624.83</ele>
        <time>2019-10-06T07:44:55Z</time>
      </trkpt>
      <trkpt lat="46.36544" lon="5.75353">
        <ele>622.95</ele>
        <time>2019-10-06T07:44:58Z</time>
      </trkpt>
      <trkpt lat="46.36543" lon="5.75349">
        <ele>612.81</ele>
        <time>2019-10-06T07:45:00Z</time>
      </trkpt>
      <trkpt lat="46.37162" lon="5.74362">
        <ele>673.55</ele>
        <time>2019-10-06T08:16:50Z</time>
      </trkpt>
      <trkpt lat="46.37163" lon="5.74346">
        <ele>675.3</ele>
        <time>2019-10-06T08:17:11Z</time>
      </trkpt>
      <trkpt lat="46.37164" lon="5.74343">
        <ele>675.33</ele>
        <time>2019-10-06T08:17:16Z</time>
      </trkpt>
      <trkpt lat="46.37164" lon="5.74332">
        <ele>676.11</ele>
        <time>2019-10-06T08:17:23Z</time>
      </trkpt>
      <trkpt lat="46.37171" lon="5.74306">
        <ele>678.6</ele>
        <time>2019-10-06T08:17:43Z</time>
      </trkpt>
      <trkpt lat="46.37173" lon="5.74288">
        <ele>680.09</ele>
        <time>2019-10-06T08:17:59Z</time>
      </trkpt>
      <trkpt lat="46.37179" lon="5.74266">
        <ele>682.51</ele>
        <time>2019-10-06T08:18:20Z</time>
      </trkpt>
      <trkpt lat="46.37181" lon="5.74243">
        <ele>684.14</ele>
        <time>2019-10-06T08:18:40Z</time>
      </trkpt>
      <trkpt lat="46.37183" lon="5.74228">
        <ele>685.88</ele>
        <time>2019-10-06T08:18:51Z</time>
      </trkpt>
      <trkpt lat="46.37185" lon="5.74194">
        <ele>687.32</ele>
        <time>2019-10-06T08:19:08Z</time>
      </trkpt>
      <trkpt lat="46.37186" lon="5.74188">
        <ele>687.28</ele>
        <time>2019-10-06T08:19:12Z</time>
      </trkpt>
      <trkpt lat="46.3719" lon="5.74167">
        <ele>688.81</ele>
        <time>2019-10-06T08:19:30Z</time>
      </trkpt>
      <trkpt lat="46.37192" lon="5.74152">
        <ele>689.64</ele>
        <time>2019-10-06T08:19:46Z</time>
      </trkpt>
      <trkpt lat="46.37197" lon="5.74123">
        <ele>690.44</ele>
        <time>2019-10-06T08:20:07Z</time>
      </trkpt>
      <trkpt lat="46.372" lon="5.74111">
        <ele>687.01</ele>
        <time>2019-10-06T08:20:17Z</time>
      </trkpt>
      <trkpt lat="46.372" lon="5.74109">
        <ele>690.98</ele>
        <time>2019-10-06T08:20:18Z</time>
      </trkpt>
      <trkpt lat="46.37199" lon="5.74106">
        <ele>693.63</ele>
        <time>2019-10-06T08:20:20Z</time>
      </trkpt>
      <trkpt lat="46.372" lon="5.74103">
        <ele>691.23</ele>
        <time>2019-10-06T08:20:22Z</time>
      </trkpt>
      <trkpt lat="46.37208" lon="5.7409">
        <ele>690.23</ele>
        <time>2019-10-06T08:20:40Z</time>
      </trkpt>
      <trkpt lat="46.37209" lon="5.74089">
        <ele>688.51</ele>
        <time>2019-10-06T08:20:42Z</time>
      </trkpt>
      <trkpt lat="46.37225" lon="5.74093">
        <ele>688.21</ele>
        <time>2019-10-06T08:21:01Z</time>
      </trkpt>
      <trkpt lat="46.37247" lon="5.74096">
        <ele>687.13</ele>
        <time>2019-10-06T08:21:20Z</time>
      </trkpt>
      <trkpt lat="46.37251" lon="5.74095">
        <ele>687.11</ele>
        <time>2019-10-06T08:21:22Z</time>
      </trkpt>
      <trkpt lat="46.37263" lon="5.74101">
        <ele>686.22</ele>
        <time>2019-10-06T08:21:30Z</time>
      </trkpt>
      <trkpt lat="46.37277" lon="5.74121">
        <ele>686.01</ele>
        <time>2019-10-06T08:21:44Z</time>
      </trkpt>
      <trkpt lat="46.37301" lon="5.74133">
        <ele>685</ele>
        <time>2019-10-06T08:22:02Z</time>
      </trkpt>
      <trkpt lat="46.37303" lon="5.74135">
        <ele>687.51</ele>
        <time>2019-10-06T08:22:04Z</time>
      </trkpt>
      <trkpt lat="46.37322" lon="5.74148">
        <ele>688.13</ele>
        <time>2019-10-06T08:22:15Z</time>
      </trkpt>
      <trkpt lat="46.37325" lon="5.7415">
        <ele>688.09</ele>
        <time>2019-10-06T08:22:17Z</time>
      </trkpt>
      <trkpt lat="46.37332" lon="5.74157">
        <ele>687.99</ele>
        <time>2019-10-06T08:22:22Z</time>
      </trkpt>
      <trkpt lat="46.37344" lon="5.74185">
        <ele>688.72</ele>
        <time>2019-10-06T08:22:37Z</time>
      </trkpt>
      <trkpt lat="46.37357" lon="5.74208">
        <ele>688.6</ele>
        <time>2019-10-06T08:22:48Z</time>
      </trkpt>
      <trkpt lat="46.3736" lon="5.74216">
        <ele>689.42</ele>
        <time>2019-10-06T08:22:52Z</time>
      </trkpt>
      <trkpt lat="46.3737" lon="5.7423">
        <ele>689.39</ele>
        <time>2019-10-06T08:23:01Z</time>
      </trkpt>
      <trkpt lat="46.37373" lon="5.74239">
        <ele>690.11</ele>
        <time>2019-10-06T08:23:05Z</time>
      </trkpt>
      <trkpt lat="46.3738" lon="5.74256">
        <ele>690.01</ele>
        <time>2019-10-06T08:23:17Z</time>
      </trkpt>
      <trkpt lat="46.3738" lon="5.74258">
        <ele>690</ele>
        <time>2019-10-06T08:23:18Z</time>
      </trkpt>
      <trkpt lat="46.37385" lon="5.74274">
        <ele>687.5</ele>
        <time>2019-10-06T08:23:28Z</time>
      </trkpt>
      <trkpt lat="46.37386" lon="5.74276">
        <ele>687.49</ele>
        <time>2019-10-06T08:23:29Z</time>
      </trkpt>
      <trkpt lat="46.37395" lon="5.74293">
        <ele>685.53</ele>
        <time>2019-10-06T08:23:38Z</time>
      </trkpt>
      <trkpt lat="46.37398" lon="5.74298">
        <ele>684.48</ele>
        <time>2019-10-06T08:23:41Z</time>
      </trkpt>
      <trkpt lat="46.37415" lon="5.74322">
        <ele>681.88</ele>
        <time>2019-10-06T08:23:59Z</time>
      </trkpt>
      <trkpt lat="46.37421" lon="5.74323">
        <ele>681.91</ele>
        <time>2019-10-06T08:24:05Z</time>
      </trkpt>
      <trkpt lat="46.37446" lon="5.7431">
        <ele>681.86</ele>
        <time>2019-10-06T08:24:26Z</time>
      </trkpt>
      <trkpt lat="46.37473" lon="5.74298">
        <ele>679.22</ele>
        <time>2019-10-06T08:24:45Z</time>
      </trkpt>
      <trkpt lat="46.37489" lon="5.74292">
        <ele>675.81</ele>
        <time>2019-10-06T08:24:57Z</time>
      </trkpt>
      <trkpt lat="46.37494" lon="5.74286">
        <ele>672.35</ele>
        <time>2019-10-06T08:25:07Z</time>
      </trkpt>
      <trkpt lat="46.37506" lon="5.74281">
        <ele>668.62</ele>
        <time>2019-10-06T08:25:22Z</time>
      </trkpt>
      <trkpt lat="46.37513" lon="5.74284">
        <ele>664.82</ele>
        <time>2019-10-06T08:25:32Z</time>
      </trkpt>
      <trkpt lat="46.37526" lon="5.74282">
        <ele>660.86</ele>
        <time>2019-10-06T08:25:43Z</time>
      </trkpt>
      <trkpt lat="46.37537" lon="5.74273">
        <ele>658.65</ele>
        <time>2019-10-06T08:25:52Z</time>
      </trkpt>
      <trkpt lat="46.3754" lon="5.74267">
        <ele>657.72</ele>
        <time>2019-10-06T08:25:58Z</time>
      </trkpt>
      <trkpt lat="46.37555" lon="5.74252">
        <ele>656.22</ele>
        <time>2019-10-06T08:26:11Z</time>
      </trkpt>
      <trkpt lat="46.37567" lon="5.74252">
        <ele>655.51</ele>
        <time>2019-10-06T08:26:24Z</time>
      </trkpt>
      <trkpt lat="46.37583" lon="5.74259">
        <ele>652.12</ele>
        <time>2019-10-06T08:26:37Z</time>
      </trkpt>
      <trkpt lat="46.37597" lon="5.7426">
        <ele>650.51</ele>
        <time>2019-10-06T08:26:48Z</time>
      </trkpt>
      <trkpt lat="46.37624" lon="5.74275">
        <ele>650.83</ele>
        <time>2019-10-06T08:27:06Z</time>
      </trkpt>
      <trkpt lat="46.37629" lon="5.74274">
        <ele>653.18</ele>
        <time>2019-10-06T08:27:10Z</time>
      </trkpt>
      <trkpt lat="46.37632" lon="5.74273">
        <ele>653.19</ele>
        <time>2019-10-06T08:27:12Z</time>
      </trkpt>
      <trkpt lat="46.3765" lon="5.74266">
        <ele>654.86</ele>
        <time>2019-10-06T08:27:30Z</time>
      </trkpt>
      <trkpt lat="46.37654" lon="5.74268">
        <ele>654.88</ele>
        <time>2019-10-06T08:27:33Z</time>
      </trkpt>
      <trkpt lat="46.37664" lon="5.74279">
        <ele>656.55</ele>
        <time>2019-10-06T08:27:42Z</time>
      </trkpt>
      <trkpt lat="46.3768" lon="5.74297">
        <ele>658.2</ele>
        <time>2019-10-06T08:27:54Z</time>
      </trkpt>
      <trkpt lat="46.37683" lon="5.74298">
        <ele>658.22</ele>
        <time>2019-10-06T08:27:56Z</time>
      </trkpt>
      <trkpt lat="46.37689" lon="5.743">
        <ele>659.11</ele>
        <time>2019-10-06T08:28:00Z</time>
      </trkpt>
      <trkpt lat="46.37694" lon="5.74299">
        <ele>659.11</ele>
        <time>2019-10-06T08:28:04Z</time>
      </trkpt>
      <trkpt lat="46.37706" lon="5.74282">
        <ele>659.98</ele>
        <time>2019-10-06T08:28:18Z</time>
      </trkpt>
      <trkpt lat="46.37714" lon="5.7427">
        <ele>657.67</ele>
        <time>2019-10-06T08:28:27Z</time>
      </trkpt>
      <trkpt lat="46.37719" lon="5.74263">
        <ele>656.87</ele>
        <time>2019-10-06T08:28:32Z</time>
      </trkpt>
      <trkpt lat="46.37721" lon="5.74258">
        <ele>656.89</ele>
        <time>2019-10-06T08:28:35Z</time>
      </trkpt>
      <trkpt lat="46.3773" lon="5.74238">
        <ele>655.11</ele>
        <time>2019-10-06T08:28:47Z</time>
      </trkpt>
      <trkpt lat="46.37729" lon="5.7423">
        <ele>654.14</ele>
        <time>2019-10-06T08:28:54Z</time>
      </trkpt>
      <trkpt lat="46.37729" lon="5.74226">
        <ele>654.16</ele>
        <time>2019-10-06T08:28:56Z</time>
      </trkpt>
      <trkpt lat="46.37729" lon="5.74221">
        <ele>653.34</ele>
        <time>2019-10-06T08:28:59Z</time>
      </trkpt>
      <trkpt lat="46.37731" lon="5.74215">
        <ele>653.35</ele>
        <time>2019-10-06T08:29:02Z</time>
      </trkpt>
      <trkpt lat="46.37734" lon="5.74207">
        <ele>652.5</ele>
        <time>2019-10-06T08:29:06Z</time>
      </trkpt>
      <trkpt lat="46.37739" lon="5.742">
        <ele>651.72</ele>
        <time>2019-10-06T08:29:12Z</time>
      </trkpt>
      <trkpt lat="46.37742" lon="5.74195">
        <ele>651.75</ele>
        <time>2019-10-06T08:29:15Z</time>
      </trkpt>
      <trkpt lat="46.37762" lon="5.7418">
        <ele>651.87</ele>
        <time>2019-10-06T08:29:29Z</time>
      </trkpt>
      <trkpt lat="46.37774" lon="5.74164">
        <ele>651.95</ele>
        <time>2019-10-06T08:29:41Z</time>
      </trkpt>
      <trkpt lat="46.37781" lon="5.74152">
        <ele>654.3</ele>
        <time>2019-10-06T08:29:49Z</time>
      </trkpt>
      <trkpt lat="46.3779" lon="5.74143">
        <ele>654.33</ele>
        <time>2019-10-06T08:29:58Z</time>
      </trkpt>
      <trkpt lat="46.37793" lon="5.74138">
        <ele>654.34</ele>
        <time>2019-10-06T08:30:01Z</time>
      </trkpt>
      <trkpt lat="46.37805" lon="5.7412">
        <ele>654.4</ele>
        <time>2019-10-06T08:30:12Z</time>
      </trkpt>
      <trkpt lat="46.3781" lon="5.74112">
        <ele>654.44</ele>
        <time>2019-10-06T08:30:16Z</time>
      </trkpt>
      <trkpt lat="46.3782" lon="5.74091">
        <ele>654.58</ele>
        <time>2019-10-06T08:30:31Z</time>
      </trkpt>
      <trkpt lat="46.37827" lon="5.74089">
        <ele>654.79</ele>
        <time>2019-10-06T08:30:56Z</time>
      </trkpt>
      <trkpt lat="46.37832" lon="5.7408">
        <ele>654.79</ele>
        <time>2019-10-06T08:31:01Z</time>
      </trkpt>
      <trkpt lat="46.37834" lon="5.74079">
        <ele>654.8</ele>
        <time>2019-10-06T08:31:02Z</time>
      </trkpt>
      <trkpt lat="46.37844" lon="5.74061">
        <ele>654.84</ele>
        <time>2019-10-06T08:31:14Z</time>
      </trkpt>
      <trkpt lat="46.3785" lon="5.74052">
        <ele>652.54</ele>
        <time>2019-10-06T08:31:20Z</time>
      </trkpt>
      <trkpt lat="46.3786" lon="5.74032">
        <ele>650.77</ele>
        <time>2019-10-06T08:31:31Z</time>
      </trkpt>
      <trkpt lat="46.37875" lon="5.74014">
        <ele>650.04</ele>
        <time>2019-10-06T08:31:44Z</time>
      </trkpt>
      <trkpt lat="46.37882" lon="5.74009">
        <ele>650.1</ele>
        <time>2019-10-06T08:31:50Z</time>
      </trkpt>
      <trkpt lat="46.37883" lon="5.74008">
        <ele>650.1</ele>
        <time>2019-10-06T08:31:51Z</time>
      </trkpt>
      <trkpt lat="46.37884" lon="5.74006">
        <ele>650.11</ele>
        <time>2019-10-06T08:31:52Z</time>
      </trkpt>
      <trkpt lat="46.37886" lon="5.74004">
        <ele>650.14</ele>
        <time>2019-10-06T08:31:54Z</time>
      </trkpt>
      <trkpt lat="46.37888" lon="5.74003">
        <ele>650.15</ele>
        <time>2019-10-06T08:31:55Z</time>
      </trkpt>
      <trkpt lat="46.3789" lon="5.74001">
        <ele>650.16</ele>
        <time>2019-10-06T08:31:56Z</time>
      </trkpt>
      <trkpt lat="46.37891" lon="5.74">
        <ele>650.18</ele>
        <time>2019-10-06T08:31:57Z</time>
      </trkpt>
      <trkpt lat="46.37893" lon="5.73998">
        <ele>650.18</ele>
        <time>2019-10-06T08:31:58Z</time>
      </trkpt>
      <trkpt lat="46.37908" lon="5.73991">
        <ele>650.31</ele>
        <time>2019-10-06T08:32:10Z</time>
      </trkpt>
      <trkpt lat="46.37913" lon="5.7399">
        <ele>652.65</ele>
        <time>2019-10-06T08:32:14Z</time>
      </trkpt>
      <trkpt lat="46.37915" lon="5.73991">
        <ele>652.67</ele>
        <time>2019-10-06T08:32:15Z</time>
      </trkpt>
      <trkpt lat="46.37917" lon="5.73991">
        <ele>652.68</ele>
        <time>2019-10-06T08:32:16Z</time>
      </trkpt>
      <trkpt lat="46.37918" lon="5.73991">
        <ele>652.68</ele>
        <time>2019-10-06T08:32:17Z</time>
      </trkpt>
      <trkpt lat="46.37919" lon="5.73991">
        <ele>652.7</ele>
        <time>2019-10-06T08:32:18Z</time>
      </trkpt>
      <trkpt lat="46.37921" lon="5.73991">
        <ele>652.7</ele>
        <time>2019-10-06T08:32:19Z</time>
      </trkpt>
      <trkpt lat="46.37923" lon="5.7399">
        <ele>653.5</ele>
        <time>2019-10-06T08:32:20Z</time>
      </trkpt>
      <trkpt lat="46.37925" lon="5.73991">
        <ele>653.51</ele>
        <time>2019-10-06T08:32:21Z</time>
      </trkpt>
      <trkpt lat="46.37927" lon="5.73991">
        <ele>653.53</ele>
        <time>2019-10-06T08:32:22Z</time>
      </trkpt>
      <trkpt lat="46.37928" lon="5.73991">
        <ele>653.52</ele>
        <time>2019-10-06T08:32:23Z</time>
      </trkpt>
      <trkpt lat="46.37952" lon="5.73993">
        <ele>654.34</ele>
        <time>2019-10-06T08:32:40Z</time>
      </trkpt>
      <trkpt lat="46.37955" lon="5.73993">
        <ele>654.34</ele>
        <time>2019-10-06T08:32:42Z</time>
      </trkpt>
      <trkpt lat="46.37956" lon="5.73993">
        <ele>654.35</ele>
        <time>2019-10-06T08:32:43Z</time>
      </trkpt>
      <trkpt lat="46.37957" lon="5.73993">
        <ele>654.35</ele>
        <time>2019-10-06T08:32:44Z</time>
      </trkpt>
      <trkpt lat="46.37973" lon="5.74012">
        <ele>655.21</ele>
        <time>2019-10-06T08:32:57Z</time>
      </trkpt>
      <trkpt lat="46.37973" lon="5.74014">
        <ele>655.22</ele>
        <time>2019-10-06T08:32:58Z</time>
      </trkpt>
      <trkpt lat="46.37974" lon="5.74015">
        <ele>655.22</ele>
        <time>2019-10-06T08:32:59Z</time>
      </trkpt>
      <trkpt lat="46.37975" lon="5.74017">
        <ele>655.23</ele>
        <time>2019-10-06T08:33:00Z</time>
      </trkpt>
      <trkpt lat="46.37976" lon="5.74018">
        <ele>656.49</ele>
        <time>2019-10-06T08:33:01Z</time>
      </trkpt>
      <trkpt lat="46.37977" lon="5.74019">
        <ele>656.5</ele>
        <time>2019-10-06T08:33:02Z</time>
      </trkpt>
      <trkpt lat="46.37994" lon="5.74029">
        <ele>657.38</ele>
        <time>2019-10-06T08:33:16Z</time>
      </trkpt>
      <trkpt lat="46.38005" lon="5.74038">
        <ele>658.26</ele>
        <time>2019-10-06T08:33:25Z</time>
      </trkpt>
      <trkpt lat="46.3802" lon="5.74048">
        <ele>660.03</ele>
        <time>2019-10-06T08:33:37Z</time>
      </trkpt>
      <trkpt lat="46.38038" lon="5.74067">
        <ele>661.07</ele>
        <time>2019-10-06T08:33:52Z</time>
      </trkpt>
      <trkpt lat="46.3804" lon="5.74068">
        <ele>661.08</ele>
        <time>2019-10-06T08:33:53Z</time>
      </trkpt>
      <trkpt lat="46.38041" lon="5.74069">
        <ele>661.1</ele>
        <time>2019-10-06T08:33:54Z</time>
      </trkpt>
      <trkpt lat="46.38058" lon="5.74086">
        <ele>662.01</ele>
        <time>2019-10-06T08:34:07Z</time>
      </trkpt>
      <trkpt lat="46.38059" lon="5.74089">
        <ele>662.02</ele>
        <time>2019-10-06T08:34:08Z</time>
      </trkpt>
      <trkpt lat="46.38064" lon="5.74099">
        <ele>662.83</ele>
        <time>2019-10-06T08:34:13Z</time>
      </trkpt>
      <trkpt lat="46.38063" lon="5.74119">
        <ele>663.71</ele>
        <time>2019-10-06T08:34:28Z</time>
      </trkpt>
      <trkpt lat="46.38062" lon="5.74123">
        <ele>663.78</ele>
        <time>2019-10-06T08:34:49Z</time>
      </trkpt>
      <trkpt lat="46.38062" lon="5.74122">
        <ele>663.84</ele>
        <time>2019-10-06T08:35:15Z</time>
      </trkpt>
      <trkpt lat="46.38064" lon="5.74125">
        <ele>663.88</ele>
        <time>2019-10-06T08:35:34Z</time>
      </trkpt>
      <trkpt lat="46.38065" lon="5.74125">
        <ele>663.88</ele>
        <time>2019-10-06T08:35:36Z</time>
      </trkpt>
      <trkpt lat="46.38069" lon="5.74138">
        <ele>663.88</ele>
        <time>2019-10-06T08:35:43Z</time>
      </trkpt>
      <trkpt lat="46.38072" lon="5.74145">
        <ele>663.9</ele>
        <time>2019-10-06T08:35:47Z</time>
      </trkpt>
      <trkpt lat="46.38077" lon="5.74166">
        <ele>664.96</ele>
        <time>2019-10-06T08:35:57Z</time>
      </trkpt>
      <trkpt lat="46.38092" lon="5.74184">
        <ele>665.83</ele>
        <time>2019-10-06T08:36:09Z</time>
      </trkpt>
      <trkpt lat="46.38094" lon="5.74186">
        <ele>665.82</ele>
        <time>2019-10-06T08:36:10Z</time>
      </trkpt>
      <trkpt lat="46.38099" lon="5.74193">
        <ele>665.83</ele>
        <time>2019-10-06T08:36:15Z</time>
      </trkpt>
      <trkpt lat="46.38116" lon="5.74209">
        <ele>667.44</ele>
        <time>2019-10-06T08:36:29Z</time>
      </trkpt>
      <trkpt lat="46.38134" lon="5.74222">
        <ele>669.07</ele>
        <time>2019-10-06T08:36:42Z</time>
      </trkpt>
      <trkpt lat="46.38139" lon="5.74228">
        <ele>669.1</ele>
        <time>2019-10-06T08:36:46Z</time>
      </trkpt>
      <trkpt lat="46.38149" lon="5.74242">
        <ele>670.94</ele>
        <time>2019-10-06T08:36:55Z</time>
      </trkpt>
      <trkpt lat="46.38154" lon="5.74254">
        <ele>672.72</ele>
        <time>2019-10-06T08:37:02Z</time>
      </trkpt>
      <trkpt lat="46.38144" lon="5.74273">
        <ele>673.55</ele>
        <time>2019-10-06T08:37:15Z</time>
      </trkpt>
      <trkpt lat="46.38132" lon="5.7428">
        <ele>673.56</ele>
        <time>2019-10-06T08:37:25Z</time>
      </trkpt>
      <trkpt lat="46.3812" lon="5.74292">
        <ele>677.01</ele>
        <time>2019-10-06T08:37:39Z</time>
      </trkpt>
      <trkpt lat="46.38118" lon="5.74297">
        <ele>677.01</ele>
        <time>2019-10-06T08:37:42Z</time>
      </trkpt>
      <trkpt lat="46.38111" lon="5.74314">
        <ele>679.65</ele>
        <time>2019-10-06T08:37:53Z</time>
      </trkpt>
      <trkpt lat="46.38098" lon="5.74329">
        <ele>681.2</ele>
        <time>2019-10-06T08:38:05Z</time>
      </trkpt>
      <trkpt lat="46.38087" lon="5.74344">
        <ele>682.91</ele>
        <time>2019-10-06T08:38:20Z</time>
      </trkpt>
      <trkpt lat="46.38074" lon="5.74363">
        <ele>686.55</ele>
        <time>2019-10-06T08:38:35Z</time>
      </trkpt>
      <trkpt lat="46.38056" lon="5.74386">
        <ele>689.03</ele>
        <time>2019-10-06T08:38:52Z</time>
      </trkpt>
      <trkpt lat="46.38049" lon="5.74393">
        <ele>689.03</ele>
        <time>2019-10-06T08:38:59Z</time>
      </trkpt>
      <trkpt lat="46.38034" lon="5.74418">
        <ele>689.02</ele>
        <time>2019-10-06T08:39:12Z</time>
      </trkpt>
      <trkpt lat="46.38028" lon="5.74428">
        <ele>689.03</ele>
        <time>2019-10-06T08:39:17Z</time>
      </trkpt>
      <trkpt lat="46.38016" lon="5.7445">
        <ele>689.93</ele>
        <time>2019-10-06T08:39:30Z</time>
      </trkpt>
      <trkpt lat="46.38006" lon="5.74463">
        <ele>690.59</ele>
        <time>2019-10-06T08:39:38Z</time>
      </trkpt>
      <trkpt lat="46.37996" lon="5.74475">
        <ele>691.35</ele>
        <time>2019-10-06T08:39:46Z</time>
      </trkpt>
      <trkpt lat="46.37994" lon="5.74481">
        <ele>691.34</ele>
        <time>2019-10-06T08:39:50Z</time>
      </trkpt>
      <trkpt lat="46.37994" lon="5.74488">
        <ele>691.34</ele>
        <time>2019-10-06T08:39:54Z</time>
      </trkpt>
      <trkpt lat="46.37995" lon="5.74502">
        <ele>691.34</ele>
        <time>2019-10-06T08:40:03Z</time>
      </trkpt>
      <trkpt lat="46.37994" lon="5.74504">
        <ele>691.35</ele>
        <time>2019-10-06T08:40:05Z</time>
      </trkpt>
      <trkpt lat="46.3799" lon="5.74522">
        <ele>691.39</ele>
        <time>2019-10-06T08:40:18Z</time>
      </trkpt>
      <trkpt lat="46.37981" lon="5.74557">
        <ele>691.42</ele>
        <time>2019-10-06T08:40:34Z</time>
      </trkpt>
      <trkpt lat="46.37967" lon="5.74585">
        <ele>691.42</ele>
        <time>2019-10-06T08:40:48Z</time>
      </trkpt>
      <trkpt lat="46.37956" lon="5.7461">
        <ele>691.42</ele>
        <time>2019-10-06T08:41:01Z</time>
      </trkpt>
      <trkpt lat="46.37954" lon="5.7463">
        <ele>691.41</ele>
        <time>2019-10-06T08:41:10Z</time>
      </trkpt>
      <trkpt lat="46.37954" lon="5.74633">
        <ele>691.4</ele>
        <time>2019-10-06T08:41:11Z</time>
      </trkpt>
      <trkpt lat="46.37954" lon="5.74635">
        <ele>691.4</ele>
        <time>2019-10-06T08:41:12Z</time>
      </trkpt>
      <trkpt lat="46.37958" lon="5.74667">
        <ele>691.38</ele>
        <time>2019-10-06T08:41:26Z</time>
      </trkpt>
      <trkpt lat="46.3796" lon="5.74695">
        <ele>691.37</ele>
        <time>2019-10-06T08:41:38Z</time>
      </trkpt>
      <trkpt lat="46.37957" lon="5.74721">
        <ele>691.36</ele>
        <time>2019-10-06T08:41:49Z</time>
      </trkpt>
      <trkpt lat="46.37953" lon="5.74738">
        <ele>691.35</ele>
        <time>2019-10-06T08:41:56Z</time>
      </trkpt>
      <trkpt lat="46.37952" lon="5.7474">
        <ele>691.35</ele>
        <time>2019-10-06T08:41:57Z</time>
      </trkpt>
      <trkpt lat="46.37952" lon="5.74742">
        <ele>691.35</ele>
        <time>2019-10-06T08:41:58Z</time>
      </trkpt>
      <trkpt lat="46.37951" lon="5.74745">
        <ele>691.35</ele>
        <time>2019-10-06T08:41:59Z</time>
      </trkpt>
      <trkpt lat="46.3795" lon="5.74747">
        <ele>691.35</ele>
        <time>2019-10-06T08:42:00Z</time>
      </trkpt>
      <trkpt lat="46.37949" lon="5.7475">
        <ele>691.35</ele>
        <time>2019-10-06T08:42:01Z</time>
      </trkpt>
      <trkpt lat="46.37942" lon="5.7477">
        <ele>692.32</ele>
        <time>2019-10-06T08:42:11Z</time>
      </trkpt>
      <trkpt lat="46.37941" lon="5.74772">
        <ele>692.32</ele>
        <time>2019-10-06T08:42:12Z</time>
      </trkpt>
      <trkpt lat="46.3794" lon="5.74774">
        <ele>692.33</ele>
        <time>2019-10-06T08:42:13Z</time>
      </trkpt>
      <trkpt lat="46.3794" lon="5.74777">
        <ele>692.33</ele>
        <time>2019-10-06T08:42:14Z</time>
      </trkpt>
      <trkpt lat="46.37939" lon="5.74779">
        <ele>692.33</ele>
        <time>2019-10-06T08:42:15Z</time>
      </trkpt>
      <trkpt lat="46.37938" lon="5.7478">
        <ele>693.2</ele>
        <time>2019-10-06T08:42:16Z</time>
      </trkpt>
      <trkpt lat="46.37931" lon="5.74795">
        <ele>693.2</ele>
        <time>2019-10-06T08:42:24Z</time>
      </trkpt>
      <trkpt lat="46.3793" lon="5.74796">
        <ele>693.21</ele>
        <time>2019-10-06T08:42:25Z</time>
      </trkpt>
      <trkpt lat="46.37929" lon="5.74798">
        <ele>693.2</ele>
        <time>2019-10-06T08:42:26Z</time>
      </trkpt>
      <trkpt lat="46.37929" lon="5.748">
        <ele>693.21</ele>
        <time>2019-10-06T08:42:27Z</time>
      </trkpt>
      <trkpt lat="46.37928" lon="5.74801">
        <ele>694.05</ele>
        <time>2019-10-06T08:42:28Z</time>
      </trkpt>
      <trkpt lat="46.37927" lon="5.74803">
        <ele>694.05</ele>
        <time>2019-10-06T08:42:29Z</time>
      </trkpt>
      <trkpt lat="46.37926" lon="5.74805">
        <ele>694.05</ele>
        <time>2019-10-06T08:42:30Z</time>
      </trkpt>
      <trkpt lat="46.37925" lon="5.74806">
        <ele>694.06</ele>
        <time>2019-10-06T08:42:31Z</time>
      </trkpt>
      <trkpt lat="46.37923" lon="5.74808">
        <ele>694.05</ele>
        <time>2019-10-06T08:42:32Z</time>
      </trkpt>
      <trkpt lat="46.37922" lon="5.7481">
        <ele>694.05</ele>
        <time>2019-10-06T08:42:33Z</time>
      </trkpt>
      <trkpt lat="46.37911" lon="5.74827">
        <ele>694.04</ele>
        <time>2019-10-06T08:42:43Z</time>
      </trkpt>
      <trkpt lat="46.37895" lon="5.7485">
        <ele>695.67</ele>
        <time>2019-10-06T08:42:57Z</time>
      </trkpt>
      <trkpt lat="46.37883" lon="5.74871">
        <ele>696.4</ele>
        <time>2019-10-06T08:43:08Z</time>
      </trkpt>
      <trkpt lat="46.37872" lon="5.74887">
        <ele>696.36</ele>
        <time>2019-10-06T08:43:18Z</time>
      </trkpt>
      <trkpt lat="46.37869" lon="5.74885">
        <ele>696.32</ele>
        <time>2019-10-06T08:43:24Z</time>
      </trkpt>
      <trkpt lat="46.37868" lon="5.74864">
        <ele>693.91</ele>
        <time>2019-10-06T08:43:36Z</time>
      </trkpt>
      <trkpt lat="46.37869" lon="5.74855">
        <ele>693.12</ele>
        <time>2019-10-06T08:43:41Z</time>
      </trkpt>
      <trkpt lat="46.37866" lon="5.74842">
        <ele>692.29</ele>
        <time>2019-10-06T08:43:46Z</time>
      </trkpt>
      <trkpt lat="46.37865" lon="5.74811">
        <ele>690.53</ele>
        <time>2019-10-06T08:43:59Z</time>
      </trkpt>
      <trkpt lat="46.37858" lon="5.74782">
        <ele>689.51</ele>
        <time>2019-10-06T08:44:10Z</time>
      </trkpt>
      <trkpt lat="46.37852" lon="5.74773">
        <ele>687.83</ele>
        <time>2019-10-06T08:44:15Z</time>
      </trkpt>
      <trkpt lat="46.37846" lon="5.74771">
        <ele>687.07</ele>
        <time>2019-10-06T08:44:20Z</time>
      </trkpt>
      <trkpt lat="46.3784" lon="5.74775">
        <ele>686.22</ele>
        <time>2019-10-06T08:44:25Z</time>
      </trkpt>
      <trkpt lat="46.37827" lon="5.74792">
        <ele>685.33</ele>
        <time>2019-10-06T08:44:38Z</time>
      </trkpt>
      <trkpt lat="46.37816" lon="5.74809">
        <ele>685.41</ele>
        <time>2019-10-06T08:44:50Z</time>
      </trkpt>
      <trkpt lat="46.3781" lon="5.7482">
        <ele>685.4</ele>
        <time>2019-10-06T08:44:57Z</time>
      </trkpt>
      <trkpt lat="46.37808" lon="5.74831">
        <ele>685.39</ele>
        <time>2019-10-06T08:45:02Z</time>
      </trkpt>
      <trkpt lat="46.37807" lon="5.74839">
        <ele>685.38</ele>
        <time>2019-10-06T08:45:07Z</time>
      </trkpt>
      <trkpt lat="46.37792" lon="5.74866">
        <ele>685.36</ele>
        <time>2019-10-06T08:45:24Z</time>
      </trkpt>
      <trkpt lat="46.37785" lon="5.74875">
        <ele>685.36</ele>
        <time>2019-10-06T08:45:29Z</time>
      </trkpt>
      <trkpt lat="46.37764" lon="5.74893">
        <ele>681.46</ele>
        <time>2019-10-06T08:45:47Z</time>
      </trkpt>
      <trkpt lat="46.37759" lon="5.74893">
        <ele>680.78</ele>
        <time>2019-10-06T08:45:50Z</time>
      </trkpt>
      <trkpt lat="46.37753" lon="5.7489">
        <ele>680.8</ele>
        <time>2019-10-06T08:45:53Z</time>
      </trkpt>
      <trkpt lat="46.3774" lon="5.74874">
        <ele>679.83</ele>
        <time>2019-10-06T08:46:07Z</time>
      </trkpt>
      <trkpt lat="46.37739" lon="5.74873">
        <ele>679.84</ele>
        <time>2019-10-06T08:46:08Z</time>
      </trkpt>
      <trkpt lat="46.37734" lon="5.74865">
        <ele>679.05</ele>
        <time>2019-10-06T08:46:13Z</time>
      </trkpt>
      <trkpt lat="46.37733" lon="5.74858">
        <ele>678.09</ele>
        <time>2019-10-06T08:46:17Z</time>
      </trkpt>
      <trkpt lat="46.37729" lon="5.74845">
        <ele>676.31</ele>
        <time>2019-10-06T08:46:24Z</time>
      </trkpt>
      <trkpt lat="46.37726" lon="5.74821">
        <ele>675.59</ele>
        <time>2019-10-06T08:46:36Z</time>
      </trkpt>
      <trkpt lat="46.37723" lon="5.74814">
        <ele>674.85</ele>
        <time>2019-10-06T08:46:39Z</time>
      </trkpt>
      <trkpt lat="46.37715" lon="5.74806">
        <ele>674.1</ele>
        <time>2019-10-06T08:46:44Z</time>
      </trkpt>
      <trkpt lat="46.37698" lon="5.7482">
        <ele>674.17</ele>
        <time>2019-10-06T08:47:00Z</time>
      </trkpt>
      <trkpt lat="46.37694" lon="5.74823">
        <ele>674.17</ele>
        <time>2019-10-06T08:47:03Z</time>
      </trkpt>
      <trkpt lat="46.37676" lon="5.74838">
        <ele>674.15</ele>
        <time>2019-10-06T08:47:16Z</time>
      </trkpt>
      <trkpt lat="46.37666" lon="5.74859">
        <ele>674.12</ele>
        <time>2019-10-06T08:47:28Z</time>
      </trkpt>
      <trkpt lat="46.37663" lon="5.74867">
        <ele>673.26</ele>
        <time>2019-10-06T08:47:32Z</time>
      </trkpt>
      <trkpt lat="46.37647" lon="5.7488">
        <ele>672.34</ele>
        <time>2019-10-06T08:47:45Z</time>
      </trkpt>
      <trkpt lat="46.37639" lon="5.74897">
        <ele>672.34</ele>
        <time>2019-10-06T08:47:53Z</time>
      </trkpt>
      <trkpt lat="46.37635" lon="5.74905">
        <ele>672.38</ele>
        <time>2019-10-06T08:47:58Z</time>
      </trkpt>
      <trkpt lat="46.37632" lon="5.74911">
        <ele>674.66</ele>
        <time>2019-10-06T08:48:02Z</time>
      </trkpt>
      <trkpt lat="46.37623" lon="5.74927">
        <ele>676.24</ele>
        <time>2019-10-06T08:48:14Z</time>
      </trkpt>
      <trkpt lat="46.3762" lon="5.74934">
        <ele>677.15</ele>
        <time>2019-10-06T08:48:18Z</time>
      </trkpt>
      <trkpt lat="46.37618" lon="5.74943">
        <ele>677.1</ele>
        <time>2019-10-06T08:48:22Z</time>
      </trkpt>
      <trkpt lat="46.37619" lon="5.74949">
        <ele>677.87</ele>
        <time>2019-10-06T08:48:24Z</time>
      </trkpt>
      <trkpt lat="46.37613" lon="5.74978">
        <ele>678.37</ele>
        <time>2019-10-06T08:48:37Z</time>
      </trkpt>
      <trkpt lat="46.37605" lon="5.75003">
        <ele>678.24</ele>
        <time>2019-10-06T08:48:50Z</time>
      </trkpt>
      <trkpt lat="46.37602" lon="5.75032">
        <ele>678.06</ele>
        <time>2019-10-06T08:49:06Z</time>
      </trkpt>
      <trkpt lat="46.37599" lon="5.75043">
        <ele>678.02</ele>
        <time>2019-10-06T08:49:11Z</time>
      </trkpt>
      <trkpt lat="46.37601" lon="5.75065">
        <ele>677.9</ele>
        <time>2019-10-06T08:49:23Z</time>
      </trkpt>
      <trkpt lat="46.37613" lon="5.75087">
        <ele>677.86</ele>
        <time>2019-10-06T08:49:34Z</time>
      </trkpt>
      <trkpt lat="46.37623" lon="5.75106">
        <ele>680.41</ele>
        <time>2019-10-06T08:49:50Z</time>
      </trkpt>
      <trkpt lat="46.37633" lon="5.75118">
        <ele>681.14</ele>
        <time>2019-10-06T08:49:58Z</time>
      </trkpt>
      <trkpt lat="46.37641" lon="5.75127">
        <ele>682.91</ele>
        <time>2019-10-06T08:50:07Z</time>
      </trkpt>
      <trkpt lat="46.37652" lon="5.75147">
        <ele>684.58</ele>
        <time>2019-10-06T08:50:20Z</time>
      </trkpt>
      <trkpt lat="46.37651" lon="5.75152">
        <ele>685.41</ele>
        <time>2019-10-06T08:50:23Z</time>
      </trkpt>
      <trkpt lat="46.37648" lon="5.75167">
        <ele>685.36</ele>
        <time>2019-10-06T08:50:31Z</time>
      </trkpt>
      <trkpt lat="46.37636" lon="5.75183">
        <ele>687.87</ele>
        <time>2019-10-06T08:50:45Z</time>
      </trkpt>
      <trkpt lat="46.37636" lon="5.75184">
        <ele>687.87</ele>
        <time>2019-10-06T08:50:46Z</time>
      </trkpt>
      <trkpt lat="46.37631" lon="5.75197">
        <ele>688.71</ele>
        <time>2019-10-06T08:50:52Z</time>
      </trkpt>
      <trkpt lat="46.37622" lon="5.75216">
        <ele>689.42</ele>
        <time>2019-10-06T08:51:04Z</time>
      </trkpt>
      <trkpt lat="46.37618" lon="5.75222">
        <ele>690.22</ele>
        <time>2019-10-06T08:51:08Z</time>
      </trkpt>
      <trkpt lat="46.37604" lon="5.7524">
        <ele>691.96</ele>
        <time>2019-10-06T08:51:22Z</time>
      </trkpt>
      <trkpt lat="46.37594" lon="5.75258">
        <ele>694.51</ele>
        <time>2019-10-06T08:51:34Z</time>
      </trkpt>
      <trkpt lat="46.37587" lon="5.75272">
        <ele>696.35</ele>
        <time>2019-10-06T08:51:44Z</time>
      </trkpt>
      <trkpt lat="46.37581" lon="5.75285">
        <ele>698.23</ele>
        <time>2019-10-06T08:51:53Z</time>
      </trkpt>
      <trkpt lat="46.37576" lon="5.75292">
        <ele>699.17</ele>
        <time>2019-10-06T08:52:00Z</time>
      </trkpt>
      <trkpt lat="46.37566" lon="5.75299">
        <ele>700.87</ele>
        <time>2019-10-06T08:52:07Z</time>
      </trkpt>
      <trkpt lat="46.37562" lon="5.75302">
        <ele>700.89</ele>
        <time>2019-10-06T08:52:10Z</time>
      </trkpt>
      <trkpt lat="46.37549" lon="5.75316">
        <ele>700.83</ele>
        <time>2019-10-06T08:52:21Z</time>
      </trkpt>
      <trkpt lat="46.37546" lon="5.75321">
        <ele>700.84</ele>
        <time>2019-10-06T08:52:24Z</time>
      </trkpt>
      <trkpt lat="46.37542" lon="5.75334">
        <ele>700.89</ele>
        <time>2019-10-06T08:52:31Z</time>
      </trkpt>
      <trkpt lat="46.3754" lon="5.75357">
        <ele>700.97</ele>
        <time>2019-10-06T08:52:41Z</time>
      </trkpt>
      <trkpt lat="46.37531" lon="5.75381">
        <ele>701.03</ele>
        <time>2019-10-06T08:52:54Z</time>
      </trkpt>
      <trkpt lat="46.37516" lon="5.754">
        <ele>701.1</ele>
        <time>2019-10-06T08:53:06Z</time>
      </trkpt>
      <trkpt lat="46.37515" lon="5.75401">
        <ele>701.09</ele>
        <time>2019-10-06T08:53:07Z</time>
      </trkpt>
      <trkpt lat="46.37513" lon="5.75402">
        <ele>701.09</ele>
        <time>2019-10-06T08:53:08Z</time>
      </trkpt>
      <trkpt lat="46.37512" lon="5.75404">
        <ele>701.08</ele>
        <time>2019-10-06T08:53:09Z</time>
      </trkpt>
      <trkpt lat="46.37501" lon="5.75422">
        <ele>701.1</ele>
        <time>2019-10-06T08:53:21Z</time>
      </trkpt>
      <trkpt lat="46.37484" lon="5.75439">
        <ele>698.93</ele>
        <time>2019-10-06T08:53:36Z</time>
      </trkpt>
      <trkpt lat="46.37482" lon="5.7544">
        <ele>698.93</ele>
        <time>2019-10-06T08:53:37Z</time>
      </trkpt>
      <trkpt lat="46.37482" lon="5.75441">
        <ele>698.94</ele>
        <time>2019-10-06T08:53:38Z</time>
      </trkpt>
      <trkpt lat="46.37481" lon="5.75443">
        <ele>698.94</ele>
        <time>2019-10-06T08:53:39Z</time>
      </trkpt>
      <trkpt lat="46.3748" lon="5.75449">
        <ele>698.2</ele>
        <time>2019-10-06T08:53:44Z</time>
      </trkpt>
      <trkpt lat="46.37479" lon="5.75451">
        <ele>697.39</ele>
        <time>2019-10-06T08:53:45Z</time>
      </trkpt>
      <trkpt lat="46.37479" lon="5.75453">
        <ele>697.39</ele>
        <time>2019-10-06T08:53:46Z</time>
      </trkpt>
      <trkpt lat="46.37478" lon="5.75456">
        <ele>697.36</ele>
        <time>2019-10-06T08:53:47Z</time>
      </trkpt>
      <trkpt lat="46.37477" lon="5.75458">
        <ele>697.4</ele>
        <time>2019-10-06T08:53:48Z</time>
      </trkpt>
      <trkpt lat="46.37477" lon="5.75474">
        <ele>696.6</ele>
        <time>2019-10-06T08:53:56Z</time>
      </trkpt>
      <trkpt lat="46.37476" lon="5.75476">
        <ele>696.6</ele>
        <time>2019-10-06T08:53:57Z</time>
      </trkpt>
      <trkpt lat="46.37476" lon="5.75478">
        <ele>695.84</ele>
        <time>2019-10-06T08:53:58Z</time>
      </trkpt>
      <trkpt lat="46.37473" lon="5.75489">
        <ele>695.87</ele>
        <time>2019-10-06T08:54:03Z</time>
      </trkpt>
      <trkpt lat="46.37473" lon="5.75491">
        <ele>695.9</ele>
        <time>2019-10-06T08:54:04Z</time>
      </trkpt>
      <trkpt lat="46.37473" lon="5.75495">
        <ele>695.93</ele>
        <time>2019-10-06T08:54:06Z</time>
      </trkpt>
      <trkpt lat="46.37473" lon="5.75497">
        <ele>695.93</ele>
        <time>2019-10-06T08:54:07Z</time>
      </trkpt>
      <trkpt lat="46.37472" lon="5.75499">
        <ele>695.96</ele>
        <time>2019-10-06T08:54:08Z</time>
      </trkpt>
      <trkpt lat="46.37472" lon="5.75501">
        <ele>695.97</ele>
        <time>2019-10-06T08:54:09Z</time>
      </trkpt>
      <trkpt lat="46.37471" lon="5.75504">
        <ele>695.98</ele>
        <time>2019-10-06T08:54:10Z</time>
      </trkpt>
      <trkpt lat="46.3747" lon="5.75506">
        <ele>695.99</ele>
        <time>2019-10-06T08:54:11Z</time>
      </trkpt>
      <trkpt lat="46.37469" lon="5.75508">
        <ele>695.99</ele>
        <time>2019-10-06T08:54:12Z</time>
      </trkpt>
      <trkpt lat="46.37468" lon="5.7551">
        <ele>695.99</ele>
        <time>2019-10-06T08:54:13Z</time>
      </trkpt>
      <trkpt lat="46.37465" lon="5.7552">
        <ele>696.04</ele>
        <time>2019-10-06T08:54:18Z</time>
      </trkpt>
      <trkpt lat="46.37465" lon="5.75521">
        <ele>696.04</ele>
        <time>2019-10-06T08:54:19Z</time>
      </trkpt>
      <trkpt lat="46.37464" lon="5.75523">
        <ele>696.04</ele>
        <time>2019-10-06T08:54:20Z</time>
      </trkpt>
      <trkpt lat="46.37463" lon="5.75525">
        <ele>696.04</ele>
        <time>2019-10-06T08:54:21Z</time>
      </trkpt>
      <trkpt lat="46.37449" lon="5.75539">
        <ele>695.15</ele>
        <time>2019-10-06T08:54:34Z</time>
      </trkpt>
      <trkpt lat="46.37437" lon="5.75544">
        <ele>695.15</ele>
        <time>2019-10-06T08:54:42Z</time>
      </trkpt>
      <trkpt lat="46.37436" lon="5.75544">
        <ele>695.14</ele>
        <time>2019-10-06T08:54:43Z</time>
      </trkpt>
      <trkpt lat="46.37435" lon="5.75545">
        <ele>695.14</ele>
        <time>2019-10-06T08:54:44Z</time>
      </trkpt>
      <trkpt lat="46.37433" lon="5.75546">
        <ele>695.14</ele>
        <time>2019-10-06T08:54:45Z</time>
      </trkpt>
      <trkpt lat="46.37432" lon="5.75546">
        <ele>695.12</ele>
        <time>2019-10-06T08:54:46Z</time>
      </trkpt>
      <trkpt lat="46.37431" lon="5.75547">
        <ele>695.12</ele>
        <time>2019-10-06T08:54:47Z</time>
      </trkpt>
      <trkpt lat="46.37429" lon="5.75547">
        <ele>695.12</ele>
        <time>2019-10-06T08:54:48Z</time>
      </trkpt>
      <trkpt lat="46.37428" lon="5.75548">
        <ele>695.12</ele>
        <time>2019-10-06T08:54:49Z</time>
      </trkpt>
      <trkpt lat="46.37427" lon="5.75549">
        <ele>695.14</ele>
        <time>2019-10-06T08:54:50Z</time>
      </trkpt>
      <trkpt lat="46.37426" lon="5.7555">
        <ele>695.15</ele>
        <time>2019-10-06T08:54:51Z</time>
      </trkpt>
      <trkpt lat="46.37424" lon="5.75551">
        <ele>695.15</ele>
        <time>2019-10-06T08:54:52Z</time>
      </trkpt>
      <trkpt lat="46.37417" lon="5.75557">
        <ele>694.36</ele>
        <time>2019-10-06T08:54:58Z</time>
      </trkpt>
      <trkpt lat="46.37403" lon="5.75542">
        <ele>694.32</ele>
        <time>2019-10-06T08:55:10Z</time>
      </trkpt>
      <trkpt lat="46.37386" lon="5.75526">
        <ele>694.34</ele>
        <time>2019-10-06T08:55:24Z</time>
      </trkpt>
      <trkpt lat="46.3737" lon="5.75518">
        <ele>690.63</ele>
        <time>2019-10-06T08:55:37Z</time>
      </trkpt>
      <trkpt lat="46.37364" lon="5.75515">
        <ele>689.62</ele>
        <time>2019-10-06T08:55:44Z</time>
      </trkpt>
      <trkpt lat="46.37362" lon="5.75513">
        <ele>688.85</ele>
        <time>2019-10-06T08:55:46Z</time>
      </trkpt>
      <trkpt lat="46.37361" lon="5.75506">
        <ele>688.06</ele>
        <time>2019-10-06T08:55:50Z</time>
      </trkpt>
      <trkpt lat="46.37359" lon="5.75501">
        <ele>687.28</ele>
        <time>2019-10-06T08:55:53Z</time>
      </trkpt>
      <trkpt lat="46.37356" lon="5.75494">
        <ele>686.53</ele>
        <time>2019-10-06T08:55:57Z</time>
      </trkpt>
      <trkpt lat="46.37342" lon="5.75487">
        <ele>686.69</ele>
        <time>2019-10-06T08:56:11Z</time>
      </trkpt>
      <trkpt lat="46.3733" lon="5.75498">
        <ele>686.76</ele>
        <time>2019-10-06T08:56:24Z</time>
      </trkpt>
      <trkpt lat="46.37328" lon="5.75501">
        <ele>689.29</ele>
        <time>2019-10-06T08:56:27Z</time>
      </trkpt>
      <trkpt lat="46.37307" lon="5.7552">
        <ele>690.14</ele>
        <time>2019-10-06T08:56:45Z</time>
      </trkpt>
      <trkpt lat="46.37286" lon="5.75525">
        <ele>690.92</ele>
        <time>2019-10-06T08:57:00Z</time>
      </trkpt>
      <trkpt lat="46.37265" lon="5.75526">
        <ele>690.95</ele>
        <time>2019-10-06T08:57:13Z</time>
      </trkpt>
      <trkpt lat="46.37248" lon="5.75522">
        <ele>688.5</ele>
        <time>2019-10-06T08:57:25Z</time>
      </trkpt>
      <trkpt lat="46.37238" lon="5.7552">
        <ele>688.52</ele>
        <time>2019-10-06T08:57:31Z</time>
      </trkpt>
      <trkpt lat="46.37217" lon="5.75517">
        <ele>686.07</ele>
        <time>2019-10-06T08:57:46Z</time>
      </trkpt>
      <trkpt lat="46.37204" lon="5.75515">
        <ele>685.22</ele>
        <time>2019-10-06T08:57:57Z</time>
      </trkpt>
      <trkpt lat="46.37192" lon="5.75515">
        <ele>683.58</ele>
        <time>2019-10-06T08:58:05Z</time>
      </trkpt>
      <trkpt lat="46.37169" lon="5.75518">
        <ele>680.97</ele>
        <time>2019-10-06T08:58:21Z</time>
      </trkpt>
      <trkpt lat="46.37151" lon="5.75521">
        <ele>679.25</ele>
        <time>2019-10-06T08:58:33Z</time>
      </trkpt>
      <trkpt lat="46.37124" lon="5.75524">
        <ele>676.02</ele>
        <time>2019-10-06T08:58:53Z</time>
      </trkpt>
      <trkpt lat="46.37105" lon="5.7552">
        <ele>674.99</ele>
        <time>2019-10-06T08:59:05Z</time>
      </trkpt>
      <trkpt lat="46.3709" lon="5.75513">
        <ele>675.01</ele>
        <time>2019-10-06T08:59:14Z</time>
      </trkpt>
      <trkpt lat="46.37083" lon="5.75508">
        <ele>675.01</ele>
        <time>2019-10-06T08:59:20Z</time>
      </trkpt>
      <trkpt lat="46.37069" lon="5.75499">
        <ele>674.06</ele>
        <time>2019-10-06T08:59:40Z</time>
      </trkpt>
      <trkpt lat="46.37068" lon="5.75499">
        <ele>674.06</ele>
        <time>2019-10-06T08:59:43Z</time>
      </trkpt>
      <trkpt lat="46.37059" lon="5.75488">
        <ele>672.36</ele>
        <time>2019-10-06T09:00:03Z</time>
      </trkpt>
      <trkpt lat="46.37055" lon="5.75484">
        <ele>672.33</ele>
        <time>2019-10-06T09:00:06Z</time>
      </trkpt>
      <trkpt lat="46.37049" lon="5.75479">
        <ele>670.47</ele>
        <time>2019-10-06T09:00:09Z</time>
      </trkpt>
      <trkpt lat="46.37047" lon="5.75477">
        <ele>669.65</ele>
        <time>2019-10-06T09:00:10Z</time>
      </trkpt>
      <trkpt lat="46.37032" lon="5.75464">
        <ele>667.89</ele>
        <time>2019-10-06T09:00:18Z</time>
      </trkpt>
      <trkpt lat="46.37029" lon="5.75462">
        <ele>667.91</ele>
        <time>2019-10-06T09:00:19Z</time>
      </trkpt>
      <trkpt lat="46.37028" lon="5.75461">
        <ele>667.91</ele>
        <time>2019-10-06T09:00:20Z</time>
      </trkpt>
      <trkpt lat="46.37026" lon="5.75459">
        <ele>667.1</ele>
        <time>2019-10-06T09:00:21Z</time>
      </trkpt>
      <trkpt lat="46.37025" lon="5.75458">
        <ele>667.09</ele>
        <time>2019-10-06T09:00:22Z</time>
      </trkpt>
      <trkpt lat="46.37023" lon="5.75456">
        <ele>666.08</ele>
        <time>2019-10-06T09:00:23Z</time>
      </trkpt>
      <trkpt lat="46.37021" lon="5.75454">
        <ele>666.06</ele>
        <time>2019-10-06T09:00:24Z</time>
      </trkpt>
      <trkpt lat="46.3702" lon="5.75452">
        <ele>665.14</ele>
        <time>2019-10-06T09:00:25Z</time>
      </trkpt>
      <trkpt lat="46.37019" lon="5.7545">
        <ele>665.2</ele>
        <time>2019-10-06T09:00:26Z</time>
      </trkpt>
      <trkpt lat="46.37014" lon="5.75445">
        <ele>664.33</ele>
        <time>2019-10-06T09:00:29Z</time>
      </trkpt>
      <trkpt lat="46.37013" lon="5.75444">
        <ele>664.29</ele>
        <time>2019-10-06T09:00:30Z</time>
      </trkpt>
      <trkpt lat="46.37012" lon="5.75442">
        <ele>664.28</ele>
        <time>2019-10-06T09:00:31Z</time>
      </trkpt>
      <trkpt lat="46.3701" lon="5.75441">
        <ele>663.03</ele>
        <time>2019-10-06T09:00:32Z</time>
      </trkpt>
      <trkpt lat="46.37008" lon="5.7544">
        <ele>663.11</ele>
        <time>2019-10-06T09:00:33Z</time>
      </trkpt>
      <trkpt lat="46.37006" lon="5.75438">
        <ele>663.09</ele>
        <time>2019-10-06T09:00:34Z</time>
      </trkpt>
      <trkpt lat="46.36995" lon="5.75431">
        <ele>661.24</ele>
        <time>2019-10-06T09:00:41Z</time>
      </trkpt>
      <trkpt lat="46.36978" lon="5.75421">
        <ele>658.78</ele>
        <time>2019-10-06T09:00:53Z</time>
      </trkpt>
      <trkpt lat="46.36972" lon="5.75414">
        <ele>656.59</ele>
        <time>2019-10-06T09:01:01Z</time>
      </trkpt>
      <trkpt lat="46.36966" lon="5.75413">
        <ele>654.82</ele>
        <time>2019-10-06T09:01:06Z</time>
      </trkpt>
      <trkpt lat="46.36958" lon="5.75417">
        <ele>651.05</ele>
        <time>2019-10-06T09:01:15Z</time>
      </trkpt>
      <trkpt lat="46.36942" lon="5.75427">
        <ele>647.13</ele>
        <time>2019-10-06T09:01:32Z</time>
      </trkpt>
      <trkpt lat="46.3694" lon="5.75428">
        <ele>647.12</ele>
        <time>2019-10-06T09:01:33Z</time>
      </trkpt>
      <trkpt lat="46.36938" lon="5.75429">
        <ele>647.14</ele>
        <time>2019-10-06T09:01:34Z</time>
      </trkpt>
      <trkpt lat="46.36935" lon="5.75429">
        <ele>645.51</ele>
        <time>2019-10-06T09:01:37Z</time>
      </trkpt>
      <trkpt lat="46.36932" lon="5.7543">
        <ele>644.32</ele>
        <time>2019-10-06T09:01:39Z</time>
      </trkpt>
      <trkpt lat="46.36919" lon="5.75437">
        <ele>640.57</ele>
        <time>2019-10-06T09:01:51Z</time>
      </trkpt>
      <trkpt lat="46.36911" lon="5.75449">
        <ele>638.59</ele>
        <time>2019-10-06T09:01:58Z</time>
      </trkpt>
      <trkpt lat="46.3691" lon="5.75451">
        <ele>638.62</ele>
        <time>2019-10-06T09:01:59Z</time>
      </trkpt>
      <trkpt lat="46.36908" lon="5.75471">
        <ele>636.85</ele>
        <time>2019-10-06T09:02:07Z</time>
      </trkpt>
      <trkpt lat="46.36905" lon="5.75499">
        <ele>635.19</ele>
        <time>2019-10-06T09:02:19Z</time>
      </trkpt>
      <trkpt lat="46.36903" lon="5.75509">
        <ele>635.18</ele>
        <time>2019-10-06T09:02:23Z</time>
      </trkpt>
      <trkpt lat="46.36899" lon="5.75524">
        <ele>637.5</ele>
        <time>2019-10-06T09:02:35Z</time>
      </trkpt>
      <trkpt lat="46.36895" lon="5.75526">
        <ele>638.26</ele>
        <time>2019-10-06T09:02:40Z</time>
      </trkpt>
      <trkpt lat="46.3688" lon="5.7553">
        <ele>640.91</ele>
        <time>2019-10-06T09:02:57Z</time>
      </trkpt>
      <trkpt lat="46.36857" lon="5.75531">
        <ele>642.6</ele>
        <time>2019-10-06T09:03:17Z</time>
      </trkpt>
      <trkpt lat="46.36837" lon="5.75526">
        <ele>644.84</ele>
        <time>2019-10-06T09:03:33Z</time>
      </trkpt>
      <trkpt lat="46.36813" lon="5.75518">
        <ele>645.43</ele>
        <time>2019-10-06T09:03:51Z</time>
      </trkpt>
      <trkpt lat="46.36793" lon="5.75534">
        <ele>645.29</ele>
        <time>2019-10-06T09:04:09Z</time>
      </trkpt>
      <trkpt lat="46.3677" lon="5.7555">
        <ele>647.6</ele>
        <time>2019-10-06T09:04:27Z</time>
      </trkpt>
      <trkpt lat="46.36771" lon="5.75554">
        <ele>648.36</ele>
        <time>2019-10-06T09:04:33Z</time>
      </trkpt>
      <trkpt lat="46.36774" lon="5.75556">
        <ele>649.15</ele>
        <time>2019-10-06T09:04:36Z</time>
      </trkpt>
      <trkpt lat="46.36786" lon="5.75559">
        <ele>650.71</ele>
        <time>2019-10-06T09:04:50Z</time>
      </trkpt>
      <trkpt lat="46.36804" lon="5.75562">
        <ele>652.28</ele>
        <time>2019-10-06T09:05:08Z</time>
      </trkpt>
      <trkpt lat="46.36825" lon="5.75565">
        <ele>653.01</ele>
        <time>2019-10-06T09:05:25Z</time>
      </trkpt>
      <trkpt lat="46.36842" lon="5.75567">
        <ele>653.74</ele>
        <time>2019-10-06T09:05:38Z</time>
      </trkpt>
      <trkpt lat="46.36862" lon="5.75576">
        <ele>653.7</ele>
        <time>2019-10-06T09:05:52Z</time>
      </trkpt>
      <trkpt lat="46.36882" lon="5.75587">
        <ele>653.63</ele>
        <time>2019-10-06T09:06:05Z</time>
      </trkpt>
      <trkpt lat="46.36901" lon="5.75593">
        <ele>654.39</ele>
        <time>2019-10-06T09:06:19Z</time>
      </trkpt>
      <trkpt lat="46.36918" lon="5.75597">
        <ele>654.29</ele>
        <time>2019-10-06T09:06:34Z</time>
      </trkpt>
      <trkpt lat="46.36941" lon="5.75614">
        <ele>654.17</ele>
        <time>2019-10-06T09:06:52Z</time>
      </trkpt>
      <trkpt lat="46.36963" lon="5.7563">
        <ele>654.06</ele>
        <time>2019-10-06T09:07:08Z</time>
      </trkpt>
      <trkpt lat="46.36986" lon="5.75645">
        <ele>651.67</ele>
        <time>2019-10-06T09:07:23Z</time>
      </trkpt>
      <trkpt lat="46.37007" lon="5.75662">
        <ele>651.53</ele>
        <time>2019-10-06T09:07:37Z</time>
      </trkpt>
      <trkpt lat="46.37023" lon="5.75678">
        <ele>651.43</ele>
        <time>2019-10-06T09:07:48Z</time>
      </trkpt>
      <trkpt lat="46.37027" lon="5.75687">
        <ele>651.38</ele>
        <time>2019-10-06T09:07:53Z</time>
      </trkpt>
      <trkpt lat="46.37046" lon="5.75698">
        <ele>651.29</ele>
        <time>2019-10-06T09:08:06Z</time>
      </trkpt>
      <trkpt lat="46.37068" lon="5.75715">
        <ele>651.16</ele>
        <time>2019-10-06T09:08:23Z</time>
      </trkpt>
      <trkpt lat="46.37081" lon="5.75723">
        <ele>650.26</ele>
        <time>2019-10-06T09:08:36Z</time>
      </trkpt>
      <trkpt lat="46.37102" lon="5.7573">
        <ele>650.22</ele>
        <time>2019-10-06T09:08:53Z</time>
      </trkpt>
      <trkpt lat="46.37109" lon="5.75731">
        <ele>650.22</ele>
        <time>2019-10-06T09:08:58Z</time>
      </trkpt>
      <trkpt lat="46.37123" lon="5.75739">
        <ele>650.21</ele>
        <time>2019-10-06T09:09:14Z</time>
      </trkpt>
      <trkpt lat="46.37132" lon="5.75746">
        <ele>649.46</ele>
        <time>2019-10-06T09:09:25Z</time>
      </trkpt>
      <trkpt lat="46.37149" lon="5.75762">
        <ele>649.55</ele>
        <time>2019-10-06T09:09:41Z</time>
      </trkpt>
      <trkpt lat="46.37169" lon="5.75772">
        <ele>649.6</ele>
        <time>2019-10-06T09:09:55Z</time>
      </trkpt>
      <trkpt lat="46.37185" lon="5.7577">
        <ele>649.63</ele>
        <time>2019-10-06T09:10:07Z</time>
      </trkpt>
      <trkpt lat="46.37192" lon="5.75771">
        <ele>651.92</ele>
        <time>2019-10-06T09:10:13Z</time>
      </trkpt>
      <trkpt lat="46.37197" lon="5.7577">
        <ele>651.91</ele>
        <time>2019-10-06T09:10:16Z</time>
      </trkpt>
      <trkpt lat="46.37213" lon="5.75753">
        <ele>651.83</ele>
        <time>2019-10-06T09:10:30Z</time>
      </trkpt>
      <trkpt lat="46.37219" lon="5.75748">
        <ele>651.83</ele>
        <time>2019-10-06T09:10:35Z</time>
      </trkpt>
      <trkpt lat="46.37232" lon="5.75763">
        <ele>653.66</ele>
        <time>2019-10-06T09:10:50Z</time>
      </trkpt>
      <trkpt lat="46.37249" lon="5.75775">
        <ele>656.18</ele>
        <time>2019-10-06T09:11:09Z</time>
      </trkpt>
      <trkpt lat="46.37271" lon="5.75792">
        <ele>658.93</ele>
        <time>2019-10-06T09:11:27Z</time>
      </trkpt>
      <trkpt lat="46.37289" lon="5.75799">
        <ele>660.13</ele>
        <time>2019-10-06T09:11:40Z</time>
      </trkpt>
      <trkpt lat="46.37309" lon="5.75814">
        <ele>661.63</ele>
        <time>2019-10-06T09:11:55Z</time>
      </trkpt>
      <trkpt lat="46.37323" lon="5.75824">
        <ele>661.7</ele>
        <time>2019-10-06T09:12:12Z</time>
      </trkpt>
      <trkpt lat="46.37341" lon="5.75838">
        <ele>662.58</ele>
        <time>2019-10-06T09:12:28Z</time>
      </trkpt>
      <trkpt lat="46.37359" lon="5.75847">
        <ele>663.41</ele>
        <time>2019-10-06T09:12:41Z</time>
      </trkpt>
      <trkpt lat="46.37375" lon="5.75862">
        <ele>665.19</ele>
        <time>2019-10-06T09:12:56Z</time>
      </trkpt>
      <trkpt lat="46.37383" lon="5.75873">
        <ele>666.06</ele>
        <time>2019-10-06T09:13:05Z</time>
      </trkpt>
      <trkpt lat="46.37389" lon="5.75881">
        <ele>666.08</ele>
        <time>2019-10-06T09:13:10Z</time>
      </trkpt>
      <trkpt lat="46.37405" lon="5.75904">
        <ele>666.06</ele>
        <time>2019-10-06T09:13:24Z</time>
      </trkpt>
      <trkpt lat="46.37417" lon="5.75928">
        <ele>666.92</ele>
        <time>2019-10-06T09:13:38Z</time>
      </trkpt>
      <trkpt lat="46.37434" lon="5.75957">
        <ele>666.93</ele>
        <time>2019-10-06T09:13:54Z</time>
      </trkpt>
      <trkpt lat="46.37437" lon="5.75982">
        <ele>666.97</ele>
        <time>2019-10-06T09:14:07Z</time>
      </trkpt>
      <trkpt lat="46.37432" lon="5.76006">
        <ele>667.76</ele>
        <time>2019-10-06T09:14:19Z</time>
      </trkpt>
      <trkpt lat="46.37426" lon="5.76033">
        <ele>668.59</ele>
        <time>2019-10-06T09:14:34Z</time>
      </trkpt>
      <trkpt lat="46.3742" lon="5.76032">
        <ele>668.61</ele>
        <time>2019-10-06T09:14:41Z</time>
      </trkpt>
      <trkpt lat="46.37419" lon="5.76032">
        <ele>668.62</ele>
        <time>2019-10-06T09:14:43Z</time>
      </trkpt>
      <trkpt lat="46.37413" lon="5.76024">
        <ele>668.69</ele>
        <time>2019-10-06T09:15:01Z</time>
      </trkpt>
      <trkpt lat="46.37399" lon="5.76019">
        <ele>668.77</ele>
        <time>2019-10-06T09:15:19Z</time>
      </trkpt>
      <trkpt lat="46.37384" lon="5.76018">
        <ele>669.58</ele>
        <time>2019-10-06T09:15:37Z</time>
      </trkpt>
      <trkpt lat="46.37383" lon="5.76019">
        <ele>669.58</ele>
        <time>2019-10-06T09:15:39Z</time>
      </trkpt>
    </trkseg>
  </trk>
</gpx>